Observation data for Tahoka on 07/04/2020      Previous  Date  Next       Current Mesonet Observations  Soil Data  Daily Summary Page  Observations in Plain Language
KTAS 040500Z 13008KT 27/12 A3007 RMK A01 T02740121  RH  039%=      5-min Rain = 0
KTAS 040501Z 13008KT 27/12 A3007 RMK A01 T02740122  RH  039%=      5-min Rain = 0
KTAS 040502Z 13008KT 27/12 A3007 RMK A01 T02730122  RH  039%=      5-min Rain = 0
KTAS 040503Z 13008KT 27/12 A3007 RMK A01 T02740121  RH  039%=      5-min Rain = 0
KTAS 040504Z 13008KT 27/12 A3007 RMK A01 T02740121  RH  039%=      5-min Rain = 0
KTAS 040505Z 13007KT 27/12 A3007 RMK A01 T02730122  RH  039%=      5-min Rain = 0
KTAS 040506Z 12007KT 27/12 A3007 RMK A01 T02720122  RH  039%=      5-min Rain = 0
KTAS 040507Z 12007KT 27/12 A3007 RMK A01 T02700121  RH  040%=      5-min Rain = 0
KTAS 040508Z 12007KT 27/12 A3007 RMK A01 T02690121  RH  040%=      5-min Rain = 0
KTAS 040509Z 12007KT 27/12 A3007 RMK A01 T02690120  RH  039%=      5-min Rain = 0
KTAS 040510Z 12008KT 27/12 A3007 RMK A01 T02690119  RH  039%=      5-min Rain = 0
KTAS 040511Z 12007KT 27/12 A3007 RMK A01 T02690117  RH  039%=      5-min Rain = 0
KTAS 040512Z 12007KT 27/12 A3007 RMK A01 T02700117  RH  039%=      5-min Rain = 0
KTAS 040513Z 12007KT 27/12 A3007 RMK A01 T02690118  RH  039%=      5-min Rain = 0
KTAS 040514Z 11006KT 27/12 A3007 RMK A01 T02670118  RH  039%=      5-min Rain = 0
KTAS 040515Z 11006KT 27/12 A3007 RMK A01 T02660119  RH  040%=      5-min Rain = 0
KTAS 040516Z 11006KT 27/12 A3007 RMK A01 T02650119  RH  040%=      5-min Rain = 0
KTAS 040517Z 11006KT 26/12 A3007 RMK A01 T02640118  RH  040%=      5-min Rain = 0
KTAS 040518Z 12006KT 26/12 A3007 RMK A01 T02640118  RH  040%=      5-min Rain = 0
KTAS 040519Z 12007KT 26/12 A3007 RMK A01 T02640118  RH  040%=      5-min Rain = 0
KTAS 040520Z 12007KT 27/12 A3007 RMK A01 T02650117  RH  040%=      5-min Rain = 0
KTAS 040521Z 12009KT 27/12 A3007 RMK A01 T02660116  RH  039%=      5-min Rain = 0
KTAS 040522Z 12007KT 27/12 A3007 RMK A01 T02690115  RH  038%=      5-min Rain = 0
KTAS 040523Z 13009KT 27/11 A3007 RMK A01 T02700114  RH  038%=      5-min Rain = 0
KTAS 040524Z 13009KT 27/11 A3007 RMK A01 T02710113  RH  037%=      5-min Rain = 0
KTAS 040525Z 13010KT 27/11 A3007 RMK A01 T02730112  RH  037%=      5-min Rain = 0
KTAS 040526Z 12010KT 27/11 A3007 RMK A01 T02730111  RH  036%=      5-min Rain = 0
KTAS 040527Z 13011KT 28/11 A3007 RMK A01 T02760108  RH  035%=      5-min Rain = 0
KTAS 040528Z 13009KT 28/11 A3007 RMK A01 T02800106  RH  034%=      5-min Rain = 0
KTAS 040529Z 12009KT 28/11 A3007 RMK A01 T02800109  RH  034%=      5-min Rain = 0
KTAS 040530Z 12010KT 28/11 A3007 RMK A01 T02790108  RH  034%=      5-min Rain = 0
KTAS 040531Z 12008KT 28/11 A3007 RMK A01 T02790108  RH  035%=      5-min Rain = 0
KTAS 040532Z 12007KT 28/11 A3007 RMK A01 T02780109  RH  035%=      5-min Rain = 0
KTAS 040533Z 12008KT 28/11 A3007 RMK A01 T02770108  RH  035%=      5-min Rain = 0
KTAS 040534Z 12007KT 28/11 A3007 RMK A01 T02770108  RH  035%=      5-min Rain = 0
KTAS 040535Z 12008KT 28/11 A3007 RMK A01 T02760109  RH  035%=      5-min Rain = 0
KTAS 040536Z 12007KT 28/11 A3007 RMK A01 T02750108  RH  035%=      5-min Rain = 0
KTAS 040537Z 12009KT 27/11 A3007 RMK A01 T02740107  RH  035%=      5-min Rain = 0
KTAS 040538Z 12008KT 27/11 A3007 RMK A01 T02740107  RH  035%=      5-min Rain = 0
KTAS 040539Z 13009KT 27/11 A3007 RMK A01 T02740107  RH  035%=      5-min Rain = 0
KTAS 040540Z 13008KT 27/11 A3007 RMK A01 T02740108  RH  035%=      5-min Rain = 0
KTAS 040541Z 13008KT 27/11 A3007 RMK A01 T02730108  RH  036%=      5-min Rain = 0
KTAS 040542Z 13007KT 27/11 A3007 RMK A01 T02720107  RH  036%=      5-min Rain = 0
KTAS 040543Z 13007KT 27/11 A3007 RMK A01 T02710108  RH  036%=      5-min Rain = 0
KTAS 040544Z 13008KT 27/11 A3007 RMK A01 T02700109  RH  037%=      5-min Rain = 0
KTAS 040545Z 13008KT 27/11 A3007 RMK A01 T02690109  RH  037%=      5-min Rain = 0
KTAS 040546Z 13009KT 27/11 A3007 RMK A01 T02680108  RH  037%=      5-min Rain = 0
KTAS 040547Z 14008KT 27/11 A3007 RMK A01 T02680106  RH  036%=      5-min Rain = 0
KTAS 040548Z 13009KT 27/11 A3007 RMK A01 T02680105  RH  036%=      5-min Rain = 0
KTAS 040549Z 14008KT 27/10 A3007 RMK A01 T02690103  RH  035%=      5-min Rain = 0
KTAS 040550Z 13008KT 27/10 A3007 RMK A01 T02700104  RH  035%=      5-min Rain = 0
KTAS 040551Z 14008KT 27/10 A3007 RMK A01 T02690104  RH  036%=      5-min Rain = 0
KTAS 040552Z 13007KT 27/10 A3007 RMK A01 T02690104  RH  036%=      5-min Rain = 0
KTAS 040553Z 13008KT 27/10 A3007 RMK A01 T02680103  RH  035%=      5-min Rain = 0
KTAS 040554Z 14008KT 27/10 A3007 RMK A01 T02690099  RH  034%=      5-min Rain = 0
KTAS 040555Z 14008KT 27/10 A3007 RMK A01 T02710100  RH  034%=      5-min Rain = 0
KTAS 040556Z 14006KT 27/10 A3007 RMK A01 T02710100  RH  034%=      5-min Rain = 0
KTAS 040557Z 14006KT 27/10 A3007 RMK A01 T02700100  RH  034%=      5-min Rain = 0
KTAS 040558Z 14006KT 27/10 A3007 RMK A01 T02700101  RH  035%=      5-min Rain = 0
KTAS 040559Z 14007KT 27/10 A3007 RMK A01 T02690100  RH  035%=      5-min Rain = 0
KTAS 040600Z 14007KT 27/10 A3007 RMK A01 T02700098  RH  034%=      5-min Rain = 0
KTAS 040601Z 13008KT 27/10 A3007 RMK A01 T02710099  RH  034%=      5-min Rain = 0
KTAS 040602Z 13008KT 27/10 A3007 RMK A01 T02710100  RH  034%=      5-min Rain = 0
KTAS 040603Z 13007KT 27/10 A3007 RMK A01 T02690100  RH  035%=      5-min Rain = 0
KTAS 040604Z 13008KT 27/10 A3006 RMK A01 T02690100  RH  035%=      5-min Rain = 0
KTAS 040605Z 13009KT 27/10 A3006 RMK A01 T02680101  RH  035%=      5-min Rain = 0
KTAS 040606Z 13009KT 27/10 A3006 RMK A01 T02670100  RH  035%=      5-min Rain = 0
KTAS 040607Z 13008KT 27/10 A3006 RMK A01 T02670100  RH  035%=      5-min Rain = 0
KTAS 040608Z 13008KT 27/10 A3006 RMK A01 T02670100  RH  035%=      5-min Rain = 0
KTAS 040609Z 13008KT 27/10 A3006 RMK A01 T02660100  RH  035%=      5-min Rain = 0
KTAS 040610Z 14007KT 27/10 A3006 RMK A01 T02670098  RH  035%=      5-min Rain = 0
KTAS 040611Z 14008KT 27/10 A3006 RMK A01 T02670098  RH  035%=      5-min Rain = 0
KTAS 040612Z 13008KT 27/10 A3006 RMK A01 T02670098  RH  035%=      5-min Rain = 0
KTAS 040613Z 14008KT 27/10 A3006 RMK A01 T02670098  RH  034%=      5-min Rain = 0
KTAS 040614Z 14008KT 27/10 A3006 RMK A01 T02680098  RH  034%=      5-min Rain = 0
KTAS 040615Z 14008KT 27/10 A3006 RMK A01 T02680098  RH  034%=      5-min Rain = 0
KTAS 040616Z 14008KT 27/10 A3006 RMK A01 T02670098  RH  035%=      5-min Rain = 0
KTAS 040617Z 14007KT 27/10 A3006 RMK A01 T02670098  RH  035%=      5-min Rain = 0
KTAS 040618Z 14008KT 27/10 A3006 RMK A01 T02660098  RH  035%=      5-min Rain = 0
KTAS 040619Z 14007KT 27/10 A3006 RMK A01 T02660098  RH  035%=      5-min Rain = 0
KTAS 040620Z 14006KT 27/10 A3006 RMK A01 T02660098  RH  035%=      5-min Rain = 0
KTAS 040621Z 14006KT 27/10 A3006 RMK A01 T02650098  RH  035%=      5-min Rain = 0
KTAS 040622Z 14007KT 27/10 A3006 RMK A01 T02650098  RH  035%=      5-min Rain = 0
KTAS 040623Z 14007KT 27/10 A3006 RMK A01 T02650097  RH  035%=      5-min Rain = 0
KTAS 040624Z 14008KT 27/10 A3006 RMK A01 T02660097  RH  035%=      5-min Rain = 0
KTAS 040625Z 14008KT 27/10 A3006 RMK A01 T02660097  RH  034%=      5-min Rain = 0
KTAS 040626Z 14007KT 27/10 A3006 RMK A01 T02660097  RH  035%=      5-min Rain = 0
KTAS 040627Z 14008KT 27/10 A3006 RMK A01 T02650098  RH  035%=      5-min Rain = 0
KTAS 040628Z 14007KT 26/10 A3006 RMK A01 T02640097  RH  035%=      5-min Rain = 0
KTAS 040629Z 14008KT 26/10 A3006 RMK A01 T02640098  RH  035%=      5-min Rain = 0
KTAS 040630Z 14007KT 26/10 A3006 RMK A01 T02640098  RH  035%=      5-min Rain = 0
KTAS 040631Z 14006KT 26/10 A3006 RMK A01 T02640098  RH  035%=      5-min Rain = 0
KTAS 040632Z 14006KT 26/10 A3006 RMK A01 T02630098  RH  035%=      5-min Rain = 0
KTAS 040633Z 15005KT 26/10 A3006 RMK A01 T02620098  RH  036%=      5-min Rain = 0
KTAS 040634Z 14005KT 26/10 A3006 RMK A01 T02610097  RH  036%=      5-min Rain = 0
KTAS 040635Z 15004KT 26/10 A3006 RMK A01 T02610099  RH  036%=      5-min Rain = 0
KTAS 040636Z 15006KT 26/10 A3006 RMK A01 T02600099  RH  036%=      5-min Rain = 0
KTAS 040637Z 15005KT 26/10 A3006 RMK A01 T02590099  RH  036%=      5-min Rain = 0
KTAS 040638Z 15005KT 26/10 A3005 RMK A01 T02590099  RH  037%=      5-min Rain = 0
KTAS 040639Z 15005KT 26/10 A3005 RMK A01 T02580098  RH  036%=      5-min Rain = 0
KTAS 040640Z 14006KT 26/10 A3005 RMK A01 T02580098  RH  036%=      5-min Rain = 0
KTAS 040641Z 14006KT 26/10 A3005 RMK A01 T02590098  RH  036%=      5-min Rain = 0
KTAS 040642Z 15006KT 26/10 A3005 RMK A01 T02600098  RH  036%=      5-min Rain = 0
KTAS 040643Z 15006KT 26/10 A3005 RMK A01 T02600098  RH  036%=      5-min Rain = 0
KTAS 040644Z 15006KT 26/10 A3005 RMK A01 T02600098  RH  036%=      5-min Rain = 0
KTAS 040645Z 14007KT 26/10 A3005 RMK A01 T02590098  RH  036%=      5-min Rain = 0
KTAS 040646Z 15006KT 26/10 A3005 RMK A01 T02600097  RH  036%=      5-min Rain = 0
KTAS 040647Z 14006KT 26/10 A3005 RMK A01 T02600097  RH  036%=      5-min Rain = 0
KTAS 040648Z 15005KT 26/10 A3005 RMK A01 T02600098  RH  036%=      5-min Rain = 0
KTAS 040649Z 14005KT 26/10 A3005 RMK A01 T02600098  RH  036%=      5-min Rain = 0
KTAS 040650Z 14005KT 26/10 A3005 RMK A01 T02590099  RH  036%=      5-min Rain = 0
KTAS 040651Z 15004KT 26/10 A3005 RMK A01 T02580099  RH  037%=      5-min Rain = 0
KTAS 040652Z 14004KT 26/10 A3005 RMK A01 T02580099  RH  037%=      5-min Rain = 0
KTAS 040653Z 15004KT 26/10 A3005 RMK A01 T02580099  RH  037%=      5-min Rain = 0
KTAS 040654Z 14005KT 26/10 A3005 RMK A01 T02570100  RH  037%=      5-min Rain = 0
KTAS 040655Z 15005KT 26/10 A3005 RMK A01 T02570099  RH  037%=      5-min Rain = 0
KTAS 040656Z 15004KT 26/10 A3005 RMK A01 T02570100  RH  037%=      5-min Rain = 0
KTAS 040657Z 15006KT 26/10 A3005 RMK A01 T02570100  RH  037%=      5-min Rain = 0
KTAS 040658Z 15005KT 26/10 A3005 RMK A01 T02560101  RH  037%=      5-min Rain = 0
KTAS 040659Z 16005KT 26/10 A3005 RMK A01 T02560101  RH  038%=      5-min Rain = 0
KTAS 040700Z 16006KT 26/10 A3005 RMK A01 T02550102  RH  038%=      5-min Rain = 0
KTAS 040701Z 16006KT 25/10 A3005 RMK A01 T02540102  RH  038%=      5-min Rain = 0
KTAS 040702Z 17006KT 25/10 A3005 RMK A01 T02530102  RH  039%=      5-min Rain = 0
KTAS 040703Z 16007KT 25/10 A3005 RMK A01 T02520103  RH  039%=      5-min Rain = 0
KTAS 040704Z 16006KT 25/10 A3005 RMK A01 T02510103  RH  039%=      5-min Rain = 0
KTAS 040705Z 16006KT 25/10 A3005 RMK A01 T02520102  RH  039%=      5-min Rain = 0
KTAS 040706Z 16006KT 25/10 A3005 RMK A01 T02520102  RH  039%=      5-min Rain = 0
KTAS 040707Z 16006KT 25/10 A3005 RMK A01 T02530102  RH  039%=      5-min Rain = 0
KTAS 040708Z 16007KT 25/10 A3005 RMK A01 T02540101  RH  038%=      5-min Rain = 0
KTAS 040709Z 16007KT 26/10 A3005 RMK A01 T02550102  RH  038%=      5-min Rain = 0
KTAS 040710Z 16007KT 26/10 A3005 RMK A01 T02560102  RH  038%=      5-min Rain = 0
KTAS 040711Z 16007KT 26/10 A3005 RMK A01 T02560102  RH  038%=      5-min Rain = 0
KTAS 040712Z 16008KT 26/10 A3005 RMK A01 T02570101  RH  038%=      5-min Rain = 0
KTAS 040713Z 16007KT 26/10 A3005 RMK A01 T02580102  RH  037%=      5-min Rain = 0
KTAS 040714Z 16007KT 26/10 A3005 RMK A01 T02580102  RH  037%=      5-min Rain = 0
KTAS 040715Z 15007KT 26/10 A3005 RMK A01 T02580101  RH  037%=      5-min Rain = 0
KTAS 040716Z 15006KT 26/10 A3005 RMK A01 T02580102  RH  037%=      5-min Rain = 0
KTAS 040717Z 14004KT 26/10 A3005 RMK A01 T02580102  RH  038%=      5-min Rain = 0
KTAS 040718Z 15004KT 26/10 A3005 RMK A01 T02570102  RH  038%=      5-min Rain = 0
KTAS 040719Z 14004KT 26/10 A3005 RMK A01 T02560102  RH  038%=      5-min Rain = 0
KTAS 040720Z 15004KT 26/10 A3005 RMK A01 T02560102  RH  038%=      5-min Rain = 0
KTAS 040721Z 15004KT 26/10 A3005 RMK A01 T02560102  RH  038%=      5-min Rain = 0
KTAS 040722Z 16004KT 26/10 A3005 RMK A01 T02550102  RH  038%=      5-min Rain = 0
KTAS 040723Z 16005KT 26/10 A3005 RMK A01 T02550102  RH  038%=      5-min Rain = 0
KTAS 040724Z 16005KT 25/10 A3005 RMK A01 T02540103  RH  039%=      5-min Rain = 0
KTAS 040725Z 16005KT 25/10 A3005 RMK A01 T02530103  RH  039%=      5-min Rain = 0
KTAS 040726Z 16005KT 25/10 A3005 RMK A01 T02530103  RH  039%=      5-min Rain = 0
KTAS 040727Z 16006KT 25/10 A3005 RMK A01 T02530103  RH  039%=      5-min Rain = 0
KTAS 040728Z 16005KT 25/10 A3005 RMK A01 T02520103  RH  039%=      5-min Rain = 0
KTAS 040729Z 16006KT 25/10 A3005 RMK A01 T02520103  RH  039%=      5-min Rain = 0
KTAS 040730Z 16006KT 25/10 A3005 RMK A01 T02510103  RH  039%=      5-min Rain = 0
KTAS 040731Z 16006KT 25/10 A3005 RMK A01 T02510104  RH  039%=      5-min Rain = 0
KTAS 040732Z 16006KT 25/10 A3005 RMK A01 T02510104  RH  040%=      5-min Rain = 0
KTAS 040733Z 17006KT 25/10 A3005 RMK A01 T02500104  RH  040%=      5-min Rain = 0
KTAS 040734Z 17007KT 25/10 A3005 RMK A01 T02500104  RH  040%=      5-min Rain = 0
KTAS 040735Z 17007KT 25/10 A3005 RMK A01 T02500104  RH  040%=      5-min Rain = 0
KTAS 040736Z 17007KT 25/11 A3005 RMK A01 T02490105  RH  040%=      5-min Rain = 0
KTAS 040737Z 17007KT 25/11 A3005 RMK A01 T02490105  RH  040%=      5-min Rain = 0
KTAS 040738Z 17007KT 25/11 A3005 RMK A01 T02490105  RH  040%=      5-min Rain = 0
KTAS 040739Z 17007KT 25/11 A3005 RMK A01 T02490105  RH  040%=      5-min Rain = 0
KTAS 040740Z 17007KT 25/11 A3005 RMK A01 T02480105  RH  041%=      5-min Rain = 0
KTAS 040741Z 17007KT 25/11 A3005 RMK A01 T02460106  RH  041%=      5-min Rain = 0
KTAS 040742Z 17006KT 25/11 A3005 RMK A01 T02450106  RH  042%=      5-min Rain = 0
KTAS 040743Z 17006KT 24/11 A3005 RMK A01 T02430106  RH  042%=      5-min Rain = 0
KTAS 040744Z 17006KT 24/11 A3005 RMK A01 T02420106  RH  042%=      5-min Rain = 0
KTAS 040745Z 17006KT 24/11 A3005 RMK A01 T02420106  RH  042%=      5-min Rain = 0
KTAS 040746Z 17006KT 24/11 A3005 RMK A01 T02410106  RH  042%=      5-min Rain = 0
KTAS 040747Z 17006KT 24/11 A3005 RMK A01 T02410107  RH  043%=      5-min Rain = 0
KTAS 040748Z 17007KT 24/11 A3005 RMK A01 T02400107  RH  043%=      5-min Rain = 0
KTAS 040749Z 16006KT 24/11 A3005 RMK A01 T02390108  RH  044%=      5-min Rain = 0
KTAS 040750Z 17004KT 24/11 A3005 RMK A01 T02370107  RH  044%=      5-min Rain = 0
KTAS 040751Z 16005KT 24/11 A3005 RMK A01 T02380106  RH  044%=      5-min Rain = 0
KTAS 040752Z 16006KT 24/11 A3005 RMK A01 T02380106  RH  043%=      5-min Rain = 0
KTAS 040753Z 16006KT 24/11 A3005 RMK A01 T02380106  RH  043%=      5-min Rain = 0
KTAS 040754Z 16006KT 24/11 A3005 RMK A01 T02380106  RH  043%=      5-min Rain = 0
KTAS 040755Z 16005KT 24/11 A3005 RMK A01 T02390106  RH  043%=      5-min Rain = 0
KTAS 040756Z 16005KT 24/11 A3005 RMK A01 T02390105  RH  043%=      5-min Rain = 0
KTAS 040757Z 15005KT 24/11 A3005 RMK A01 T02390105  RH  043%=      5-min Rain = 0
KTAS 040758Z 15004KT 24/11 A3005 RMK A01 T02400105  RH  042%=      5-min Rain = 0
KTAS 040759Z 15004KT 24/11 A3005 RMK A01 T02410105  RH  042%=      5-min Rain = 0
KTAS 040800Z 14003KT 24/11 A3005 RMK A01 T02420105  RH  042%=      5-min Rain = 0
KTAS 040801Z 15004KT 24/11 A3005 RMK A01 T02420105  RH  042%=      5-min Rain = 0
KTAS 040802Z 15004KT 24/11 A3005 RMK A01 T02420106  RH  042%=      5-min Rain = 0
KTAS 040803Z 15004KT 24/11 A3005 RMK A01 T02430106  RH  042%=      5-min Rain = 0
KTAS 040804Z 14004KT 24/11 A3005 RMK A01 T02430107  RH  042%=      5-min Rain = 0
KTAS 040805Z 14004KT 24/11 A3005 RMK A01 T02420107  RH  043%=      5-min Rain = 0
KTAS 040806Z 14004KT 24/11 A3005 RMK A01 T02420108  RH  043%=      5-min Rain = 0
KTAS 040807Z 14005KT 24/11 A3005 RMK A01 T02420109  RH  043%=      5-min Rain = 0
KTAS 040808Z 15005KT 24/11 A3005 RMK A01 T02420109  RH  043%=      5-min Rain = 0
KTAS 040809Z 15004KT 24/11 A3005 RMK A01 T02420109  RH  043%=      5-min Rain = 0
KTAS 040810Z 15004KT 24/11 A3005 RMK A01 T02410110  RH  044%=      5-min Rain = 0
KTAS 040811Z 16003KT 24/11 A3005 RMK A01 T02400110  RH  044%=      5-min Rain = 0
KTAS 040812Z 15004KT 24/11 A3005 RMK A01 T02390110  RH  044%=      5-min Rain = 0
KTAS 040813Z 15004KT 24/11 A3005 RMK A01 T02380111  RH  045%=      5-min Rain = 0
KTAS 040814Z 15004KT 24/11 A3005 RMK A01 T02370111  RH  045%=      5-min Rain = 0
KTAS 040815Z 15004KT 24/11 A3005 RMK A01 T02370111  RH  045%=      5-min Rain = 0
KTAS 040816Z 15004KT 24/11 A3005 RMK A01 T02360111  RH  045%=      5-min Rain = 0
KTAS 040817Z 15005KT 24/11 A3005 RMK A01 T02360111  RH  045%=      5-min Rain = 0
KTAS 040818Z 15005KT 24/11 A3005 RMK A01 T02350111  RH  046%=      5-min Rain = 0
KTAS 040819Z 16005KT 24/11 A3005 RMK A01 T02350111  RH  046%=      5-min Rain = 0
KTAS 040820Z 16005KT 23/11 A3005 RMK A01 T02340111  RH  046%=      5-min Rain = 0
KTAS 040821Z 16004KT 23/11 A3005 RMK A01 T02330110  RH  046%=      5-min Rain = 0
KTAS 040822Z 17004KT 23/11 A3005 RMK A01 T02330110  RH  046%=      5-min Rain = 0
KTAS 040823Z 17005KT 23/11 A3005 RMK A01 T02330111  RH  046%=      5-min Rain = 0
KTAS 040824Z 18003KT 23/11 A3005 RMK A01 T02310112  RH  047%=      5-min Rain = 0
KTAS 040825Z 18003KT 23/11 A3005 RMK A01 T02290113  RH  048%=      5-min Rain = 0
KTAS 040826Z 17004KT 23/11 A3005 RMK A01 T02270113  RH  048%=      5-min Rain = 0
KTAS 040827Z 16004KT 23/11 A3005 RMK A01 T02270113  RH  049%=      5-min Rain = 0
KTAS 040828Z 16003KT 23/11 A3005 RMK A01 T02270113  RH  049%=      5-min Rain = 0
KTAS 040829Z 15003KT 23/11 A3005 RMK A01 T02270113  RH  049%=      5-min Rain = 0
KTAS 040830Z 14003KT 23/11 A3005 RMK A01 T02270113  RH  049%=      5-min Rain = 0
KTAS 040831Z 13003KT 23/11 A3006 RMK A01 T02270112  RH  048%=      5-min Rain = 0
KTAS 040832Z 12002KT 23/11 A3006 RMK A01 T02270113  RH  048%=      5-min Rain = 0
KTAS 040833Z 09002KT 23/11 A3006 RMK A01 T02260111  RH  048%=      5-min Rain = 0
KTAS 040834Z 12002KT 23/11 A3006 RMK A01 T02270111  RH  048%=      5-min Rain = 0
KTAS 040835Z 11002KT 23/11 A3006 RMK A01 T02260112  RH  048%=      5-min Rain = 0
KTAS 040836Z 11003KT 22/11 A3006 RMK A01 T02240112  RH  049%=      5-min Rain = 0
KTAS 040837Z 12002KT 22/11 A3006 RMK A01 T02240112  RH  049%=      5-min Rain = 0
KTAS 040838Z 12001KT 22/11 A3006 RMK A01 T02240111  RH  049%=      5-min Rain = 0
KTAS 040839Z 13002KT 22/11 A3006 RMK A01 T02240111  RH  049%=      5-min Rain = 0
KTAS 040840Z 13001KT 22/11 A3006 RMK A01 T02240111  RH  049%=      5-min Rain = 0
KTAS 040841Z 13001KT 22/11 A3006 RMK A01 T02240112  RH  049%=      5-min Rain = 0
KTAS 040842Z 13002KT 22/11 A3006 RMK A01 T02230114  RH  050%=      5-min Rain = 0
KTAS 040843Z 13003KT 22/11 A3006 RMK A01 T02200113  RH  051%=      5-min Rain = 0
KTAS 040844Z 12002KT 22/11 A3006 RMK A01 T02180113  RH  051%=      5-min Rain = 0
KTAS 040845Z 12001KT 22/11 A3006 RMK A01 T02160114  RH  052%=      5-min Rain = 0
KTAS 040846Z 13001KT 21/11 A3006 RMK A01 T02130113  RH  053%=      5-min Rain = 0
KTAS 040847Z 13000KT 21/11 A3006 RMK A01 T02130112  RH  053%=      5-min Rain = 0
KTAS 040848Z 13001KT 21/11 A3006 RMK A01 T02130112  RH  052%=      5-min Rain = 0
KTAS 040849Z 14002KT 21/11 A3006 RMK A01 T02140113  RH  052%=      5-min Rain = 0
KTAS 040850Z 13001KT 21/11 A3006 RMK A01 T02140114  RH  053%=      5-min Rain = 0
KTAS 040851Z 11001KT 21/11 A3006 RMK A01 T02140112  RH  052%=      5-min Rain = 0
KTAS 040852Z 11001KT 21/11 A3006 RMK A01 T02140113  RH  053%=      5-min Rain = 0
KTAS 040853Z 10001KT 21/11 A3006 RMK A01 T02140114  RH  053%=      5-min Rain = 0
KTAS 040854Z 09001KT 21/11 A3006 RMK A01 T02120114  RH  054%=      5-min Rain = 0
KTAS 040855Z 11001KT 21/11 A3006 RMK A01 T02110114  RH  054%=      5-min Rain = 0
KTAS 040856Z 12000KT 21/11 A3006 RMK A01 T02110113  RH  053%=      5-min Rain = 0
KTAS 040857Z 11000KT 21/11 A3006 RMK A01 T02120112  RH  053%=      5-min Rain = 0
KTAS 040858Z 11001KT 21/11 A3006 RMK A01 T02120113  RH  053%=      5-min Rain = 0
KTAS 040859Z 12001KT 21/11 A3006 RMK A01 T02120113  RH  053%=      5-min Rain = 0
KTAS 040900Z 12001KT 21/11 A3007 RMK A01 T02110114  RH  054%=      5-min Rain = 0
KTAS 040901Z 12000KT 21/11 A3007 RMK A01 T02110113  RH  054%=      5-min Rain = 0
KTAS 040902Z 15001KT 21/11 A3007 RMK A01 T02090114  RH  055%=      5-min Rain = 0
KTAS 040903Z 18000KT 21/12 A3007 RMK A01 T02080115  RH  055%=      5-min Rain = 0
KTAS 040904Z 18000KT 21/11 A3007 RMK A01 T02070114  RH  055%=      5-min Rain = 0
KTAS 040905Z 00000KT 21/11 A3007 RMK A01 T02070114  RH  055%=      5-min Rain = 0
KTAS 040906Z 00000KT 21/12 A3007 RMK A01 T02060115  RH  056%=      5-min Rain = 0
KTAS 040907Z 20001KT 21/12 A3007 RMK A01 T02060115  RH  056%=      5-min Rain = 0
KTAS 040908Z 21002KT 21/12 A3007 RMK A01 T02050116  RH  056%=      5-min Rain = 0
KTAS 040909Z 20001KT 20/12 A3007 RMK A01 T02040116  RH  057%=      5-min Rain = 0
KTAS 040910Z 20001KT 20/12 A3007 RMK A01 T02040116  RH  057%=      5-min Rain = 0
KTAS 040911Z 20001KT 20/12 A3007 RMK A01 T02030116  RH  057%=      5-min Rain = 0
KTAS 040912Z 21001KT 20/12 A3007 RMK A01 T02030115  RH  057%=      5-min Rain = 0
KTAS 040913Z 21001KT 20/12 A3007 RMK A01 T02040115  RH  056%=      5-min Rain = 0
KTAS 040914Z 22002KT 21/11 A3007 RMK A01 T02050114  RH  056%=      5-min Rain = 0
KTAS 040915Z 23002KT 21/12 A3007 RMK A01 T02050115  RH  056%=      5-min Rain = 0
KTAS 040916Z 23002KT 21/11 A3007 RMK A01 T02050114  RH  056%=      5-min Rain = 0
KTAS 040917Z 22002KT 21/12 A3007 RMK A01 T02050115  RH  056%=      5-min Rain = 0
KTAS 040918Z 23003KT 21/12 A3007 RMK A01 T02050115  RH  056%=      5-min Rain = 0
KTAS 040919Z 23003KT 21/12 A3007 RMK A01 T02050116  RH  057%=      5-min Rain = 0
KTAS 040920Z 23003KT 20/12 A3007 RMK A01 T02040117  RH  057%=      5-min Rain = 0
KTAS 040921Z 22003KT 20/12 A3007 RMK A01 T02040118  RH  058%=      5-min Rain = 0
KTAS 040922Z 21003KT 20/12 A3007 RMK A01 T02040119  RH  058%=      5-min Rain = 0
KTAS 040923Z 19003KT 20/12 A3007 RMK A01 T02040120  RH  058%=      5-min Rain = 0
KTAS 040924Z 19003KT 21/12 A3007 RMK A01 T02050120  RH  058%=      5-min Rain = 0
KTAS 040925Z 19003KT 21/12 A3007 RMK A01 T02060120  RH  058%=      5-min Rain = 0
KTAS 040926Z 19003KT 21/12 A3007 RMK A01 T02070121  RH  058%=      5-min Rain = 0
KTAS 040927Z 20004KT 21/12 A3007 RMK A01 T02070120  RH  058%=      5-min Rain = 0
KTAS 040928Z 20004KT 21/12 A3007 RMK A01 T02080119  RH  057%=      5-min Rain = 0
KTAS 040929Z 19004KT 21/12 A3007 RMK A01 T02090118  RH  056%=      5-min Rain = 0
KTAS 040930Z 18004KT 21/12 A3007 RMK A01 T02110121  RH  056%=      5-min Rain = 0
KTAS 040931Z 18003KT 21/12 A3007 RMK A01 T02110123  RH  057%=      5-min Rain = 0
KTAS 040932Z 19004KT 21/13 A3007 RMK A01 T02110126  RH  058%=      5-min Rain = 0
KTAS 040933Z 19004KT 21/13 A3007 RMK A01 T02090125  RH  059%=      5-min Rain = 0
KTAS 040934Z 18004KT 21/12 A3007 RMK A01 T02080122  RH  058%=      5-min Rain = 0
KTAS 040935Z 18004KT 21/12 A3007 RMK A01 T02090122  RH  057%=      5-min Rain = 0
KTAS 040936Z 19003KT 21/12 A3007 RMK A01 T02090120  RH  057%=      5-min Rain = 0
KTAS 040937Z 17005KT 21/12 A3007 RMK A01 T02100116  RH  055%=      5-min Rain = 0
KTAS 040938Z 17005KT 21/11 A3007 RMK A01 T02130114  RH  053%=      5-min Rain = 0
KTAS 040939Z 17005KT 22/12 A3007 RMK A01 T02150115  RH  053%=      5-min Rain = 0
KTAS 040940Z 17005KT 22/12 A3007 RMK A01 T02160115  RH  053%=      5-min Rain = 0
KTAS 040941Z 17005KT 22/12 A3007 RMK A01 T02160117  RH  053%=      5-min Rain = 0
KTAS 040942Z 17005KT 22/12 A3007 RMK A01 T02160119  RH  054%=      5-min Rain = 0
KTAS 040943Z 17005KT 22/12 A3006 RMK A01 T02170117  RH  053%=      5-min Rain = 0
KTAS 040944Z 17005KT 22/12 A3006 RMK A01 T02160116  RH  053%=      5-min Rain = 0
KTAS 040945Z 17005KT 22/11 A3006 RMK A01 T02170114  RH  052%=      5-min Rain = 0
KTAS 040946Z 17005KT 22/11 A3006 RMK A01 T02180113  RH  051%=      5-min Rain = 0
KTAS 040947Z 16005KT 22/11 A3006 RMK A01 T02190112  RH  051%=      5-min Rain = 0
KTAS 040948Z 17005KT 22/11 A3006 RMK A01 T02200114  RH  051%=      5-min Rain = 0
KTAS 040949Z 17004KT 22/12 A3007 RMK A01 T02200115  RH  051%=      5-min Rain = 0
KTAS 040950Z 16004KT 22/11 A3007 RMK A01 T02200110  RH  050%=      5-min Rain = 0
KTAS 040951Z 16003KT 22/11 A3007 RMK A01 T02220110  RH  049%=      5-min Rain = 0
KTAS 040952Z 16004KT 22/11 A3007 RMK A01 T02230109  RH  049%=      5-min Rain = 0
KTAS 040953Z 16005KT 22/11 A3007 RMK A01 T02240109  RH  048%=      5-min Rain = 0
KTAS 040954Z 16005KT 22/11 A3006 RMK A01 T02240111  RH  049%=      5-min Rain = 0
KTAS 040955Z 16005KT 22/11 A3006 RMK A01 T02240111  RH  049%=      5-min Rain = 0
KTAS 040956Z 16005KT 22/11 A3006 RMK A01 T02240113  RH  049%=      5-min Rain = 0
KTAS 040957Z 16005KT 22/12 A3006 RMK A01 T02240117  RH  051%=      5-min Rain = 0
KTAS 040958Z 16005KT 22/12 A3006 RMK A01 T02230116  RH  051%=      5-min Rain = 0
KTAS 040959Z 16005KT 22/12 A3006 RMK A01 T02220115  RH  051%=      5-min Rain = 0
KTAS 041000Z 17005KT 22/12 A3006 RMK A01 T02210115  RH  051%=      5-min Rain = 0
KTAS 041001Z 16005KT 22/12 A3006 RMK A01 T02200115  RH  051%=      5-min Rain = 0
KTAS 041002Z 16005KT 22/12 A3006 RMK A01 T02190117  RH  052%=      5-min Rain = 0
KTAS 041003Z 16005KT 22/12 A3006 RMK A01 T02180116  RH  052%=      5-min Rain = 0
KTAS 041004Z 16005KT 22/11 A3006 RMK A01 T02180114  RH  052%=      5-min Rain = 0
KTAS 041005Z 16005KT 22/12 A3006 RMK A01 T02180115  RH  052%=      5-min Rain = 0
KTAS 041006Z 15005KT 22/12 A3006 RMK A01 T02170115  RH  052%=      5-min Rain = 0
KTAS 041007Z 16004KT 22/12 A3006 RMK A01 T02170117  RH  053%=      5-min Rain = 0
KTAS 041008Z 16004KT 22/12 A3006 RMK A01 T02160118  RH  053%=      5-min Rain = 0
KTAS 041009Z 16004KT 22/12 A3006 RMK A01 T02160119  RH  054%=      5-min Rain = 0
KTAS 041010Z 17004KT 22/12 A3006 RMK A01 T02150115  RH  053%=      5-min Rain = 0
KTAS 041011Z 17002KT 22/12 A3006 RMK A01 T02160115  RH  053%=      5-min Rain = 0
KTAS 041012Z 18000KT 21/12 A3006 RMK A01 T02130123  RH  056%=      5-min Rain = 0
KTAS 041013Z 19002KT 21/12 A3006 RMK A01 T02090124  RH  058%=      5-min Rain = 0
KTAS 041014Z 17003KT 21/12 A3006 RMK A01 T02070121  RH  058%=      5-min Rain = 0
KTAS 041015Z 16004KT 21/12 A3006 RMK A01 T02080120  RH  057%=      5-min Rain = 0
KTAS 041016Z 16004KT 21/12 A3006 RMK A01 T02080117  RH  056%=      5-min Rain = 0
KTAS 041017Z 16004KT 21/11 A3006 RMK A01 T02090113  RH  054%=      5-min Rain = 0
KTAS 041018Z 16004KT 21/11 A3006 RMK A01 T02120112  RH  053%=      5-min Rain = 0
KTAS 041019Z 16004KT 22/11 A3006 RMK A01 T02150111  RH  051%=      5-min Rain = 0
KTAS 041020Z 17004KT 22/11 A3006 RMK A01 T02170111  RH  051%=      5-min Rain = 0
KTAS 041021Z 18002KT 22/12 A3006 RMK A01 T02190115  RH  051%=      5-min Rain = 0
KTAS 041022Z 21002KT 22/12 A3006 RMK A01 T02150122  RH  055%=      5-min Rain = 0
KTAS 041023Z 19002KT 21/12 A3006 RMK A01 T02110122  RH  057%=      5-min Rain = 0
KTAS 041024Z 18002KT 21/12 A3006 RMK A01 T02100122  RH  057%=      5-min Rain = 0
KTAS 041025Z 19002KT 21/12 A3006 RMK A01 T02090123  RH  058%=      5-min Rain = 0
KTAS 041026Z 19001KT 21/12 A3006 RMK A01 T02070123  RH  059%=      5-min Rain = 0
KTAS 041027Z 19001KT 21/12 A3006 RMK A01 T02060124  RH  059%=      5-min Rain = 0
KTAS 041028Z 19001KT 21/12 A3006 RMK A01 T02050124  RH  060%=      5-min Rain = 0
KTAS 041029Z 20001KT 20/13 A3006 RMK A01 T02040125  RH  060%=      5-min Rain = 0
KTAS 041030Z 21001KT 20/13 A3006 RMK A01 T02030126  RH  061%=      5-min Rain = 0
KTAS 041031Z 21001KT 20/13 A3006 RMK A01 T02020127  RH  062%=      5-min Rain = 0
KTAS 041032Z 21001KT 20/13 A3006 RMK A01 T02010129  RH  063%=      5-min Rain = 0
KTAS 041033Z 21001KT 20/13 A3006 RMK A01 T02000130  RH  064%=      5-min Rain = 0
KTAS 041034Z 24002KT 20/13 A3006 RMK A01 T01990130  RH  065%=      5-min Rain = 0
KTAS 041035Z 25002KT 20/13 A3006 RMK A01 T01980131  RH  065%=      5-min Rain = 0
KTAS 041036Z 25002KT 20/13 A3006 RMK A01 T01970132  RH  066%=      5-min Rain = 0
KTAS 041037Z 25002KT 20/13 A3006 RMK A01 T01960132  RH  066%=      5-min Rain = 0
KTAS 041038Z 25002KT 20/13 A3006 RMK A01 T01960132  RH  066%=      5-min Rain = 0
KTAS 041039Z 26002KT 20/13 A3006 RMK A01 T01960131  RH  066%=      5-min Rain = 0
KTAS 041040Z 26002KT 20/13 A3007 RMK A01 T01960130  RH  066%=      5-min Rain = 0
KTAS 041041Z 26002KT 20/13 A3007 RMK A01 T01960129  RH  065%=      5-min Rain = 0
KTAS 041042Z 26002KT 20/13 A3007 RMK A01 T01960128  RH  065%=      5-min Rain = 0
KTAS 041043Z 27002KT 20/13 A3007 RMK A01 T01960128  RH  065%=      5-min Rain = 0
KTAS 041044Z 27002KT 20/13 A3007 RMK A01 T01960128  RH  065%=      5-min Rain = 0
KTAS 041045Z 27002KT 20/13 A3006 RMK A01 T01960127  RH  064%=      5-min Rain = 0
KTAS 041046Z 27002KT 20/13 A3006 RMK A01 T01960128  RH  064%=      5-min Rain = 0
KTAS 041047Z 27001KT 20/13 A3006 RMK A01 T01960127  RH  064%=      5-min Rain = 0
KTAS 041048Z 27001KT 20/13 A3006 RMK A01 T01960127  RH  064%=      5-min Rain = 0
KTAS 041049Z 27001KT 20/13 A3006 RMK A01 T01970127  RH  064%=      5-min Rain = 0
KTAS 041050Z 27001KT 20/13 A3006 RMK A01 T01970128  RH  064%=      5-min Rain = 0
KTAS 041051Z 27001KT 20/13 A3006 RMK A01 T01970127  RH  064%=      5-min Rain = 0
KTAS 041052Z 27001KT 20/13 A3007 RMK A01 T01970126  RH  063%=      5-min Rain = 0
KTAS 041053Z 27002KT 20/13 A3007 RMK A01 T01980125  RH  063%=      5-min Rain = 0
KTAS 041054Z 27002KT 20/13 A3007 RMK A01 T02000126  RH  062%=      5-min Rain = 0
KTAS 041055Z 27002KT 20/13 A3007 RMK A01 T02010126  RH  062%=      5-min Rain = 0
KTAS 041056Z 27002KT 20/13 A3007 RMK A01 T02010126  RH  062%=      5-min Rain = 0
KTAS 041057Z 27003KT 20/13 A3007 RMK A01 T02010126  RH  062%=      5-min Rain = 0
KTAS 041058Z 27003KT 20/13 A3007 RMK A01 T02010126  RH  062%=      5-min Rain = 0
KTAS 041059Z 27003KT 20/13 A3007 RMK A01 T02010126  RH  062%=      5-min Rain = 0
KTAS 041100Z 27003KT 20/13 A3007 RMK A01 T02010126  RH  062%=      5-min Rain = 0
KTAS 041101Z 28003KT 20/13 A3007 RMK A01 T02000127  RH  063%=      5-min Rain = 0
KTAS 041102Z 29004KT 20/13 A3007 RMK A01 T02000128  RH  063%=      5-min Rain = 0
KTAS 041103Z 29004KT 20/13 A3007 RMK A01 T01990127  RH  063%=      5-min Rain = 0
KTAS 041104Z 29004KT 20/13 A3007 RMK A01 T01990127  RH  063%=      5-min Rain = 0
KTAS 041105Z 30005KT 20/13 A3007 RMK A01 T02000127  RH  063%=      5-min Rain = 0
KTAS 041106Z 30005KT 20/13 A3007 RMK A01 T02010127  RH  063%=      5-min Rain = 0
KTAS 041107Z 30005KT 20/13 A3007 RMK A01 T02000127  RH  063%=      5-min Rain = 0
KTAS 041108Z 30006KT 20/13 A3007 RMK A01 T01990127  RH  063%=      5-min Rain = 0
KTAS 041109Z 30006KT 20/13 A3007 RMK A01 T01980128  RH  064%=      5-min Rain = 0
KTAS 041110Z 30006KT 20/13 A3007 RMK A01 T01980128  RH  064%=      5-min Rain = 0
KTAS 041111Z 30007KT 20/13 A3007 RMK A01 T01970128  RH  064%=      5-min Rain = 0
KTAS 041112Z 30006KT 20/13 A3007 RMK A01 T01960128  RH  065%=      5-min Rain = 0
KTAS 041113Z 30007KT 20/13 A3007 RMK A01 T01960128  RH  065%=      5-min Rain = 0
KTAS 041114Z 30007KT 20/13 A3007 RMK A01 T01950128  RH  065%=      5-min Rain = 0
KTAS 041115Z 30007KT 20/13 A3007 RMK A01 T01950128  RH  065%=      5-min Rain = 0
KTAS 041116Z 30007KT 20/13 A3007 RMK A01 T01950128  RH  065%=      5-min Rain = 0
KTAS 041117Z 30007KT 20/13 A3007 RMK A01 T01950128  RH  065%=      5-min Rain = 0
KTAS 041118Z 30007KT 20/13 A3007 RMK A01 T01950128  RH  065%=      5-min Rain = 0
KTAS 041119Z 30007KT 20/13 A3008 RMK A01 T01950128  RH  065%=      5-min Rain = 0
KTAS 041120Z 30006KT 20/13 A3008 RMK A01 T01950128  RH  065%=      5-min Rain = 0
KTAS 041121Z 30006KT 20/13 A3008 RMK A01 T01950128  RH  065%=      5-min Rain = 0
KTAS 041122Z 30005KT 20/13 A3008 RMK A01 T01950128  RH  065%=      5-min Rain = 0
KTAS 041123Z 30005KT 20/13 A3008 RMK A01 T01960128  RH  065%=      5-min Rain = 0
KTAS 041124Z 30004KT 20/13 A3008 RMK A01 T01950128  RH  065%=      5-min Rain = 0
KTAS 041125Z 30004KT 20/13 A3008 RMK A01 T01950127  RH  065%=      5-min Rain = 0
KTAS 041126Z 30005KT 20/13 A3008 RMK A01 T01950127  RH  065%=      5-min Rain = 0
KTAS 041127Z 29005KT 20/13 A3008 RMK A01 T01950126  RH  064%=      5-min Rain = 0
KTAS 041128Z 29005KT 20/13 A3008 RMK A01 T01950125  RH  064%=      5-min Rain = 0
KTAS 041129Z 29005KT 20/13 A3008 RMK A01 T01950126  RH  064%=      5-min Rain = 0
KTAS 041130Z 29005KT 20/13 A3008 RMK A01 T01950126  RH  064%=      5-min Rain = 0
KTAS 041131Z 29004KT 20/13 A3008 RMK A01 T01960125  RH  064%=      5-min Rain = 0
KTAS 041132Z 29004KT 20/13 A3008 RMK A01 T01960125  RH  063%=      5-min Rain = 0
KTAS 041133Z 29004KT 20/12 A3008 RMK A01 T01970124  RH  063%=      5-min Rain = 0
KTAS 041134Z 28004KT 20/12 A3008 RMK A01 T01980123  RH  062%=      5-min Rain = 0
KTAS 041135Z 28003KT 20/12 A3007 RMK A01 T01980122  RH  062%=      5-min Rain = 0
KTAS 041136Z 28004KT 20/12 A3007 RMK A01 T01990123  RH  061%=      5-min Rain = 0
KTAS 041137Z 28004KT 20/12 A3007 RMK A01 T01990123  RH  061%=      5-min Rain = 0
KTAS 041138Z 28004KT 20/12 A3008 RMK A01 T01990122  RH  061%=      5-min Rain = 0
KTAS 041139Z 28004KT 20/12 A3008 RMK A01 T01990122  RH  061%=      5-min Rain = 0
KTAS 041140Z 28005KT 20/12 A3008 RMK A01 T02000122  RH  061%=      5-min Rain = 0
KTAS 041141Z 28005KT 20/12 A3008 RMK A01 T02000122  RH  061%=      5-min Rain = 0
KTAS 041142Z 28004KT 20/12 A3008 RMK A01 T02000122  RH  061%=      5-min Rain = 0
KTAS 041143Z 27004KT 20/12 A3008 RMK A01 T02000122  RH  061%=      5-min Rain = 0
KTAS 041144Z 26003KT 20/12 A3008 RMK A01 T02000123  RH  061%=      5-min Rain = 0
KTAS 041145Z 27003KT 20/12 A3008 RMK A01 T02000124  RH  062%=      5-min Rain = 0
KTAS 041146Z 27004KT 20/12 A3008 RMK A01 T02000124  RH  061%=      5-min Rain = 0
KTAS 041147Z 28005KT 20/12 A3008 RMK A01 T02010123  RH  061%=      5-min Rain = 0
KTAS 041148Z 29005KT 20/12 A3008 RMK A01 T02020122  RH  060%=      5-min Rain = 0
KTAS 041149Z 29005KT 20/12 A3008 RMK A01 T02030121  RH  059%=      5-min Rain = 0
KTAS 041150Z 29006KT 20/12 A3008 RMK A01 T02040121  RH  059%=      5-min Rain = 0
KTAS 041151Z 29008KT 20/12 A3008 RMK A01 T02040120  RH  059%=      5-min Rain = 0
KTAS 041152Z 29008KT 20/12 A3008 RMK A01 T02040120  RH  058%=      5-min Rain = 0
KTAS 041153Z 29005KT 21/12 A3008 RMK A01 T02080116  RH  056%=      5-min Rain = 0
KTAS 041154Z 28006KT 21/11 A3008 RMK A01 T02140114  RH  053%=      5-min Rain = 0
KTAS 041155Z 28006KT 22/12 A3008 RMK A01 T02160116  RH  053%=      5-min Rain = 0
KTAS 041156Z 29006KT 22/12 A3008 RMK A01 T02150117  RH  054%=      5-min Rain = 0
KTAS 041157Z 31008KT 21/12 A3008 RMK A01 T02130119  RH  055%=      5-min Rain = 0
KTAS 041158Z 30008KT 21/12 A3008 RMK A01 T02100119  RH  056%=      5-min Rain = 0
KTAS 041159Z 30009KT 21/12 A3008 RMK A01 T02090119  RH  056%=      5-min Rain = 0
KTAS 041200Z 30007KT 21/12 A3008 RMK A01 T02090119  RH  056%=      5-min Rain = 0
KTAS 041201Z 30007KT 21/12 A3008 RMK A01 T02100118  RH  056%=      5-min Rain = 0
KTAS 041202Z 28005KT 21/12 A3008 RMK A01 T02110119  RH  056%=      5-min Rain = 0
KTAS 041203Z 26003KT 21/12 A3008 RMK A01 T02110120  RH  056%=      5-min Rain = 0
KTAS 041204Z 25003KT 21/12 A3008 RMK A01 T02090121  RH  057%=      5-min Rain = 0
KTAS 041205Z 26003KT 21/12 A3008 RMK A01 T02080120  RH  057%=      5-min Rain = 0
KTAS 041206Z 26002KT 21/12 A3008 RMK A01 T02090119  RH  057%=      5-min Rain = 0
KTAS 041207Z 27002KT 21/12 A3008 RMK A01 T02100120  RH  056%=      5-min Rain = 0
KTAS 041208Z 27003KT 21/12 A3008 RMK A01 T02100120  RH  056%=      5-min Rain = 0
KTAS 041209Z 29003KT 21/12 A3008 RMK A01 T02110120  RH  056%=      5-min Rain = 0
KTAS 041210Z 31004KT 21/12 A3008 RMK A01 T02110121  RH  056%=      5-min Rain = 0
KTAS 041211Z 31005KT 21/12 A3008 RMK A01 T02100122  RH  057%=      5-min Rain = 0
KTAS 041212Z 31006KT 21/12 A3008 RMK A01 T02090122  RH  058%=      5-min Rain = 0
KTAS 041213Z 31005KT 21/12 A3008 RMK A01 T02090122  RH  058%=      5-min Rain = 0
KTAS 041214Z 31005KT 21/12 A3008 RMK A01 T02090122  RH  058%=      5-min Rain = 0
KTAS 041215Z 31005KT 21/12 A3008 RMK A01 T02090122  RH  057%=      5-min Rain = 0
KTAS 041216Z 31004KT 21/12 A3008 RMK A01 T02100123  RH  057%=      5-min Rain = 0
KTAS 041217Z 31004KT 21/12 A3008 RMK A01 T02100123  RH  057%=      5-min Rain = 0
KTAS 041218Z 30004KT 21/12 A3008 RMK A01 T02110123  RH  057%=      5-min Rain = 0
KTAS 041219Z 30003KT 21/12 A3008 RMK A01 T02120123  RH  057%=      5-min Rain = 0
KTAS 041220Z 30003KT 21/12 A3008 RMK A01 T02130123  RH  056%=      5-min Rain = 0
KTAS 041221Z 30002KT 21/12 A3008 RMK A01 T02140124  RH  056%=      5-min Rain = 0
KTAS 041222Z 29002KT 22/12 A3008 RMK A01 T02150124  RH  056%=      5-min Rain = 0
KTAS 041223Z 28003KT 22/12 A3008 RMK A01 T02160123  RH  056%=      5-min Rain = 0
KTAS 041224Z 28003KT 22/13 A3008 RMK A01 T02160126  RH  056%=      5-min Rain = 0
KTAS 041225Z 28003KT 22/13 A3008 RMK A01 T02170128  RH  057%=      5-min Rain = 0
KTAS 041226Z 28003KT 22/13 A3008 RMK A01 T02170128  RH  057%=      5-min Rain = 0
KTAS 041227Z 28003KT 22/13 A3008 RMK A01 T02170127  RH  056%=      5-min Rain = 0
KTAS 041228Z 28003KT 22/13 A3008 RMK A01 T02170127  RH  056%=      5-min Rain = 0
KTAS 041229Z 28003KT 22/13 A3008 RMK A01 T02180125  RH  056%=      5-min Rain = 0
KTAS 041230Z 28003KT 22/13 A3008 RMK A01 T02190125  RH  055%=      5-min Rain = 0
KTAS 041231Z 27003KT 22/13 A3008 RMK A01 T02200127  RH  055%=      5-min Rain = 0
KTAS 041232Z 29004KT 22/13 A3008 RMK A01 T02210129  RH  056%=      5-min Rain = 0
KTAS 041233Z 29005KT 22/13 A3008 RMK A01 T02220131  RH  056%=      5-min Rain = 0
KTAS 041234Z 29005KT 22/13 A3008 RMK A01 T02230131  RH  056%=      5-min Rain = 0
KTAS 041235Z 30005KT 22/13 A3008 RMK A01 T02240132  RH  056%=      5-min Rain = 0
KTAS 041236Z 30004KT 23/13 A3008 RMK A01 T02250132  RH  055%=      5-min Rain = 0
KTAS 041237Z 30005KT 23/13 A3008 RMK A01 T02270133  RH  055%=      5-min Rain = 0
KTAS 041238Z 30005KT 23/13 A3008 RMK A01 T02280132  RH  055%=      5-min Rain = 0
KTAS 041239Z 31005KT 23/13 A3008 RMK A01 T02290133  RH  055%=      5-min Rain = 0
KTAS 041240Z 31005KT 23/13 A3008 RMK A01 T02300133  RH  055%=      5-min Rain = 0
KTAS 041241Z 31005KT 23/14 A3008 RMK A01 T02310135  RH  055%=      5-min Rain = 0
KTAS 041242Z 32005KT 23/14 A3008 RMK A01 T02320138  RH  056%=      5-min Rain = 0
KTAS 041243Z 32006KT 23/14 A3008 RMK A01 T02330139  RH  056%=      5-min Rain = 0
KTAS 041244Z 32007KT 23/14 A3008 RMK A01 T02330139  RH  055%=      5-min Rain = 0
KTAS 041245Z 32006KT 23/14 A3008 RMK A01 T02340141  RH  056%=      5-min Rain = 0
KTAS 041246Z 32008KT 24/14 A3008 RMK A01 T02350142  RH  056%=      5-min Rain = 0
KTAS 041247Z 32008KT 24/14 A3008 RMK A01 T02360142  RH  056%=      5-min Rain = 0
KTAS 041248Z 32008KT 24/14 A3008 RMK A01 T02360142  RH  056%=      5-min Rain = 0
KTAS 041249Z 32009KT 24/14 A3008 RMK A01 T02370144  RH  056%=      5-min Rain = 0
KTAS 041250Z 32008KT 24/14 A3008 RMK A01 T02370144  RH  056%=      5-min Rain = 0
KTAS 041251Z 32007KT 24/15 A3008 RMK A01 T02380145  RH  056%=      5-min Rain = 0
KTAS 041252Z 32008KT 24/15 A3008 RMK A01 T02390147  RH  056%=      5-min Rain = 0
KTAS 041253Z 33009KT 24/15 A3008 RMK A01 T02400147  RH  056%=      5-min Rain = 0
KTAS 041254Z 33010KT 24/15 A3008 RMK A01 T02400147  RH  056%=      5-min Rain = 0
KTAS 041255Z 34010KT 24/15 A3008 RMK A01 T02410148  RH  056%=      5-min Rain = 0
KTAS 041256Z 33010KT 24/15 A3008 RMK A01 T02420148  RH  056%=      5-min Rain = 0
KTAS 041257Z 33009KT 24/15 A3008 RMK A01 T02420149  RH  056%=      5-min Rain = 0
KTAS 041258Z 33009KT 24/15 A3008 RMK A01 T02430150  RH  056%=      5-min Rain = 0
KTAS 041259Z 33009KT 24/15 A3008 RMK A01 T02430150  RH  056%=      5-min Rain = 0
KTAS 041300Z 33009KT 24/15 A3008 RMK A01 T02440150  RH  056%=      5-min Rain = 0
KTAS 041301Z 33008KT 25/15 A3008 RMK A01 T02450152  RH  056%=      5-min Rain = 0
KTAS 041302Z 33009KT 25/15 A3008 RMK A01 T02460153  RH  056%=      5-min Rain = 0
KTAS 041303Z 33009KT 25/15 A3008 RMK A01 T02460152  RH  056%=      5-min Rain = 0
KTAS 041304Z 33008KT 25/15 A3008 RMK A01 T02460153  RH  056%=      5-min Rain = 0
KTAS 041305Z 33009KT 25/15 A3008 RMK A01 T02460152  RH  056%=      5-min Rain = 0
KTAS 041306Z 33009KT 25/15 A3008 RMK A01 T02470153  RH  056%=      5-min Rain = 0
KTAS 041307Z 34011KT 25/15 A3008 RMK A01 T02470153  RH  056%=      5-min Rain = 0
KTAS 041308Z 34010KT 25/15 A3008 RMK A01 T02460153  RH  056%=      5-min Rain = 0
KTAS 041309Z 34008KT 25/15 A3008 RMK A01 T02470154  RH  056%=      5-min Rain = 0
KTAS 041310Z 34008KT 25/16 A3008 RMK A01 T02480155  RH  056%=      5-min Rain = 0
KTAS 041311Z 34008KT 25/16 A3008 RMK A01 T02490155  RH  056%=      5-min Rain = 0
KTAS 041312Z 34006KT 25/16 A3008 RMK A01 T02500156  RH  056%=      5-min Rain = 0
KTAS 041313Z 34005KT 25/16 A3008 RMK A01 T02510156  RH  056%=      5-min Rain = 0
KTAS 041314Z 34006KT 25/16 A3008 RMK A01 T02520158  RH  056%=      5-min Rain = 0
KTAS 041315Z 33007KT 25/16 A3008 RMK A01 T02540158  RH  055%=      5-min Rain = 0
KTAS 041316Z 33007KT 25/16 A3008 RMK A01 T02540156  RH  055%=      5-min Rain = 0
KTAS 041317Z 34005KT 25/16 A3008 RMK A01 T02540157  RH  055%=      5-min Rain = 0
KTAS 041318Z 34006KT 26/16 A3008 RMK A01 T02560160  RH  055%=      5-min Rain = 0
KTAS 041319Z 33007KT 26/16 A3008 RMK A01 T02550155  RH  054%=      5-min Rain = 0
KTAS 041320Z 32006KT 26/16 A3008 RMK A01 T02550158  RH  055%=      5-min Rain = 0
KTAS 041321Z 32006KT 26/16 A3008 RMK A01 T02550157  RH  055%=      5-min Rain = 0
KTAS 041322Z 32005KT 26/16 A3008 RMK A01 T02550159  RH  055%=      5-min Rain = 0
KTAS 041323Z 33003KT 26/16 A3008 RMK A01 T02580162  RH  055%=      5-min Rain = 0
KTAS 041324Z 32005KT 26/16 A3008 RMK A01 T02600160  RH  054%=      5-min Rain = 0
KTAS 041325Z 33005KT 26/16 A3008 RMK A01 T02600158  RH  053%=      5-min Rain = 0
KTAS 041326Z 32005KT 26/16 A3008 RMK A01 T02600159  RH  054%=      5-min Rain = 0
KTAS 041327Z 32006KT 26/16 A3008 RMK A01 T02600157  RH  053%=      5-min Rain = 0
KTAS 041328Z 32006KT 26/16 A3008 RMK A01 T02600157  RH  053%=      5-min Rain = 0
KTAS 041329Z 32005KT 26/16 A3008 RMK A01 T02600158  RH  053%=      5-min Rain = 0
KTAS 041330Z 33006KT 26/16 A3008 RMK A01 T02610159  RH  053%=      5-min Rain = 0
KTAS 041331Z 33006KT 26/16 A3008 RMK A01 T02630160  RH  053%=      5-min Rain = 0
KTAS 041332Z 34006KT 26/16 A3008 RMK A01 T02640159  RH  052%=      5-min Rain = 0
KTAS 041333Z 35007KT 26/16 A3008 RMK A01 T02640159  RH  052%=      5-min Rain = 0
KTAS 041334Z 00008KT 26/16 A3008 RMK A01 T02640158  RH  052%=      5-min Rain = 0
KTAS 041335Z 36008KT 27/16 A3008 RMK A01 T02660159  RH  052%=      5-min Rain = 0
KTAS 041336Z 36007KT 27/16 A3008 RMK A01 T02660160  RH  052%=      5-min Rain = 0
KTAS 041337Z 36008KT 27/16 A3008 RMK A01 T02670158  RH  051%=      5-min Rain = 0
KTAS 041338Z 35007KT 27/16 A3008 RMK A01 T02660157  RH  051%=      5-min Rain = 0
KTAS 041339Z 35007KT 27/16 A3008 RMK A01 T02660160  RH  052%=      5-min Rain = 0
KTAS 041340Z 34008KT 27/16 A3008 RMK A01 T02670159  RH  052%=      5-min Rain = 0
KTAS 041341Z 34007KT 27/16 A3008 RMK A01 T02660158  RH  052%=      5-min Rain = 0
KTAS 041342Z 33006KT 26/16 A3008 RMK A01 T02640158  RH  052%=      5-min Rain = 0
KTAS 041343Z 33007KT 26/16 A3008 RMK A01 T02640160  RH  053%=      5-min Rain = 0
KTAS 041344Z 34005KT 26/16 A3008 RMK A01 T02640159  RH  052%=      5-min Rain = 0
KTAS 041345Z 34006KT 27/16 A3008 RMK A01 T02650159  RH  052%=      5-min Rain = 0
KTAS 041346Z 33007KT 27/16 A3008 RMK A01 T02660160  RH  052%=      5-min Rain = 0
KTAS 041347Z 33007KT 27/16 A3008 RMK A01 T02660158  RH  051%=      5-min Rain = 0
KTAS 041348Z 34007KT 27/16 A3008 RMK A01 T02650157  RH  051%=      5-min Rain = 0
KTAS 041349Z 34006KT 27/16 A3008 RMK A01 T02650159  RH  052%=      5-min Rain = 0
KTAS 041350Z 33007KT 27/16 A3008 RMK A01 T02650159  RH  052%=      5-min Rain = 0
KTAS 041351Z 34008KT 26/16 A3008 RMK A01 T02640158  RH  052%=      5-min Rain = 0
KTAS 041352Z 34007KT 26/16 A3008 RMK A01 T02640159  RH  052%=      5-min Rain = 0
KTAS 041353Z 34006KT 26/16 A3008 RMK A01 T02630159  RH  053%=      5-min Rain = 0
KTAS 041354Z 34007KT 26/16 A3008 RMK A01 T02620159  RH  053%=      5-min Rain = 0
KTAS 041355Z 33008KT 26/16 A3008 RMK A01 T02610158  RH  053%=      5-min Rain = 0
KTAS 041356Z 34007KT 26/16 A3008 RMK A01 T02610156  RH  053%=      5-min Rain = 0
KTAS 041357Z 33007KT 26/16 A3008 RMK A01 T02610159  RH  053%=      5-min Rain = 0
KTAS 041358Z 34007KT 26/16 A3008 RMK A01 T02610159  RH  053%=      5-min Rain = 0
KTAS 041359Z 34007KT 26/16 A3008 RMK A01 T02630161  RH  053%=      5-min Rain = 0
KTAS 041400Z 34006KT 27/16 A3008 RMK A01 T02660163  RH  053%=      5-min Rain = 0
KTAS 041401Z 33007KT 27/16 A3008 RMK A01 T02690163  RH  052%=      5-min Rain = 0
KTAS 041402Z 33007KT 27/16 A3008 RMK A01 T02700162  RH  051%=      5-min Rain = 0
KTAS 041403Z 33007KT 27/16 A3008 RMK A01 T02730164  RH  051%=      5-min Rain = 0
KTAS 041404Z 34009KT 28/16 A3008 RMK A01 T02750163  RH  050%=      5-min Rain = 0
KTAS 041405Z 34009KT 28/16 A3008 RMK A01 T02750161  RH  050%=      5-min Rain = 0
KTAS 041406Z 33009KT 28/16 A3008 RMK A01 T02760163  RH  050%=      5-min Rain = 0
KTAS 041407Z 33009KT 28/16 A3008 RMK A01 T02770163  RH  050%=      5-min Rain = 0
KTAS 041408Z 33009KT 28/16 A3008 RMK A01 T02770161  RH  049%=      5-min Rain = 0
KTAS 041409Z 34010KT 28/16 A3008 RMK A01 T02770163  RH  050%=      5-min Rain = 0
KTAS 041410Z 33009KT 28/16 A3008 RMK A01 T02780163  RH  049%=      5-min Rain = 0
KTAS 041411Z 34009KT 28/16 A3008 RMK A01 T02780162  RH  049%=      5-min Rain = 0
KTAS 041412Z 34011KT 28/16 A3008 RMK A01 T02770158  RH  048%=      5-min Rain = 0
KTAS 041413Z 34010KT 28/16 A3008 RMK A01 T02760160  RH  049%=      5-min Rain = 0
KTAS 041414Z 34010KT 28/16 A3008 RMK A01 T02780160  RH  049%=      5-min Rain = 0
KTAS 041415Z 34010KT 28/16 A3008 RMK A01 T02790161  RH  049%=      5-min Rain = 0
KTAS 041416Z 34009KT 28/16 A3008 RMK A01 T02800161  RH  048%=      5-min Rain = 0
KTAS 041417Z 34010KT 28/16 A3008 RMK A01 T02800160  RH  048%=      5-min Rain = 0
KTAS 041418Z 35010KT 28/16 A3008 RMK A01 T02800161  RH  048%=      5-min Rain = 0
KTAS 041419Z 35010KT 28/16 A3008 RMK A01 T02800160  RH  048%=      5-min Rain = 0
KTAS 041420Z 33008KT 28/16 A3008 RMK A01 T02800159  RH  048%=      5-min Rain = 0
KTAS 041421Z 34010KT 28/16 A3008 RMK A01 T02800160  RH  048%=      5-min Rain = 0
KTAS 041422Z 34009KT 28/16 A3008 RMK A01 T02790160  RH  048%=      5-min Rain = 0
KTAS 041423Z 36009KT 28/16 A3008 RMK A01 T02800160  RH  048%=      5-min Rain = 0
KTAS 041424Z 00009KT 28/16 A3008 RMK A01 T02820161  RH  048%=      5-min Rain = 0
KTAS 041425Z 35010KT 28/16 A3008 RMK A01 T02830160  RH  047%=      5-min Rain = 0
KTAS 041426Z 35010KT 28/16 A3008 RMK A01 T02820158  RH  047%=      5-min Rain = 0
KTAS 041427Z 34009KT 28/16 A3008 RMK A01 T02810159  RH  047%=      5-min Rain = 0
KTAS 041428Z 35007KT 28/16 A3008 RMK A01 T02810160  RH  048%=      5-min Rain = 0
KTAS 041429Z 33009KT 28/16 A3008 RMK A01 T02810159  RH  047%=      5-min Rain = 0
KTAS 041430Z 33009KT 28/16 A3008 RMK A01 T02800157  RH  047%=      5-min Rain = 0
KTAS 041431Z 33009KT 28/16 A3008 RMK A01 T02800158  RH  047%=      5-min Rain = 0
KTAS 041432Z 32010KT 28/16 A3008 RMK A01 T02810159  RH  047%=      5-min Rain = 0
KTAS 041433Z 33009KT 28/16 A3008 RMK A01 T02820158  RH  047%=      5-min Rain = 0
KTAS 041434Z 32008KT 28/16 A3008 RMK A01 T02820157  RH  047%=      5-min Rain = 0
KTAS 041435Z 32007KT 28/16 A3008 RMK A01 T02830158  RH  047%=      5-min Rain = 0
KTAS 041436Z 32007KT 29/16 A3008 RMK A01 T02850161  RH  047%=      5-min Rain = 0
KTAS 041437Z 34008KT 29/16 A3008 RMK A01 T02860159  RH  046%=      5-min Rain = 0
KTAS 041438Z 33008KT 29/16 A3008 RMK A01 T02860158  RH  046%=      5-min Rain = 0
KTAS 041439Z 33007KT 29/16 A3008 RMK A01 T02880160  RH  046%=      5-min Rain = 0
KTAS 041440Z 33007KT 29/16 A3008 RMK A01 T02900159  RH  045%=      5-min Rain = 0
KTAS 041441Z 33008KT 29/16 A3008 RMK A01 T02900158  RH  045%=      5-min Rain = 0
KTAS 041442Z 34005KT 29/16 A3008 RMK A01 T02890157  RH  045%=      5-min Rain = 0
KTAS 041443Z 34006KT 29/16 A3008 RMK A01 T02880156  RH  045%=      5-min Rain = 0
KTAS 041444Z 33007KT 29/16 A3008 RMK A01 T02890158  RH  045%=      5-min Rain = 0
KTAS 041445Z 32007KT 29/16 A3008 RMK A01 T02910157  RH  044%=      5-min Rain = 0
KTAS 041446Z 32009KT 29/16 A3008 RMK A01 T02920157  RH  044%=      5-min Rain = 0
KTAS 041447Z 33007KT 29/16 A3008 RMK A01 T02920156  RH  044%=      5-min Rain = 0
KTAS 041448Z 32007KT 29/16 A3008 RMK A01 T02930158  RH  044%=      5-min Rain = 0
KTAS 041449Z 32006KT 29/16 A3008 RMK A01 T02940158  RH  044%=      5-min Rain = 0
KTAS 041450Z 34006KT 30/16 A3007 RMK A01 T02960160  RH  044%=      5-min Rain = 0
KTAS 041451Z 35005KT 30/16 A3007 RMK A01 T02960159  RH  043%=      5-min Rain = 0
KTAS 041452Z 32006KT 30/16 A3007 RMK A01 T02990162  RH  043%=      5-min Rain = 0
KTAS 041453Z 35005KT 30/16 A3007 RMK A01 T03020163  RH  043%=      5-min Rain = 0
KTAS 041454Z 36008KT 30/16 A3007 RMK A01 T03030159  RH  042%=      5-min Rain = 0
KTAS 041455Z 34006KT 30/16 A3007 RMK A01 T03020161  RH  042%=      5-min Rain = 0
KTAS 041456Z 34009KT 30/16 A3007 RMK A01 T03020159  RH  042%=      5-min Rain = 0
KTAS 041457Z 34007KT 30/15 A3007 RMK A01 T02990154  RH  041%=      5-min Rain = 0
KTAS 041458Z 34007KT 30/16 A3007 RMK A01 T02990158  RH  043%=      5-min Rain = 0
KTAS 041459Z 33006KT 30/16 A3007 RMK A01 T02990158  RH  042%=      5-min Rain = 0
KTAS 041500Z 33006KT 30/16 A3007 RMK A01 T03010161  RH  043%=      5-min Rain = 0
KTAS 041501Z 33007KT 31/17 A3007 RMK A01 T03050166  RH  043%=      5-min Rain = 0
KTAS 041502Z 32009KT 31/16 A3007 RMK A01 T03070163  RH  042%=      5-min Rain = 0
KTAS 041503Z 33008KT 31/16 A3007 RMK A01 T03050156  RH  041%=      5-min Rain = 0
KTAS 041504Z 31010KT 30/16 A3007 RMK A01 T03040158  RH  041%=      5-min Rain = 0
KTAS 041505Z 31010KT 30/16 A3007 RMK A01 T03040156  RH  041%=      5-min Rain = 0
KTAS 041506Z 32010KT 30/16 A3007 RMK A01 T03010155  RH  041%=      5-min Rain = 0
KTAS 041507Z 32007KT 30/16 A3007 RMK A01 T02990156  RH  042%=      5-min Rain = 0
KTAS 041508Z 34009KT 30/16 A3007 RMK A01 T02990155  RH  042%=      5-min Rain = 0
KTAS 041509Z 34009KT 30/15 A3007 RMK A01 T02980154  RH  042%=      5-min Rain = 0
KTAS 041510Z 34009KT 30/16 A3007 RMK A01 T02970157  RH  043%=      5-min Rain = 0
KTAS 041511Z 33008KT 30/16 A3007 RMK A01 T02970157  RH  043%=      5-min Rain = 0
KTAS 041512Z 32007KT 30/16 A3007 RMK A01 T02970160  RH  043%=      5-min Rain = 0
KTAS 041513Z 33009KT 30/16 A3007 RMK A01 T02970157  RH  043%=      5-min Rain = 0
KTAS 041514Z 35008KT 30/16 A3007 RMK A01 T02950155  RH  043%=      5-min Rain = 0
KTAS 041515Z 35008KT 29/16 A3007 RMK A01 T02940156  RH  043%=      5-min Rain = 0
KTAS 041516Z 35008KT 29/16 A3008 RMK A01 T02940158  RH  044%=      5-min Rain = 0
KTAS 041517Z 33006KT 30/16 A3008 RMK A01 T02960162  RH  044%=      5-min Rain = 0
KTAS 041518Z 33008KT 30/16 A3008 RMK A01 T02960156  RH  043%=      5-min Rain = 0
KTAS 041519Z 34007KT 29/16 A3008 RMK A01 T02940158  RH  044%=      5-min Rain = 0
KTAS 041520Z 34009KT 29/16 A3008 RMK A01 T02940158  RH  044%=      5-min Rain = 0
KTAS 041521Z 33009KT 29/16 A3008 RMK A01 T02930157  RH  044%=      5-min Rain = 0
KTAS 041522Z 33008KT 29/16 A3008 RMK A01 T02920157  RH  044%=      5-min Rain = 0
KTAS 041523Z 32006KT 29/16 A3008 RMK A01 T02910158  RH  045%=      5-min Rain = 0
KTAS 041524Z 33009KT 29/16 A3008 RMK A01 T02910160  RH  045%=      5-min Rain = 0
KTAS 041525Z 33008KT 29/16 A3008 RMK A01 T02910157  RH  044%=      5-min Rain = 0
KTAS 041526Z 33008KT 29/16 A3008 RMK A01 T02890155  RH  044%=      5-min Rain = 0
KTAS 041527Z 34008KT 29/16 A3008 RMK A01 T02890156  RH  044%=      5-min Rain = 0
KTAS 041528Z 32008KT 29/16 A3008 RMK A01 T02890155  RH  044%=      5-min Rain = 0
KTAS 041529Z 33006KT 29/16 A3008 RMK A01 T02890156  RH  045%=      5-min Rain = 0
KTAS 041530Z 33008KT 29/16 A3008 RMK A01 T02890156  RH  045%=      5-min Rain = 0
KTAS 041531Z 33007KT 29/16 A3008 RMK A01 T02880156  RH  045%=      5-min Rain = 0
KTAS 041532Z 33007KT 29/16 A3008 RMK A01 T02870157  RH  045%=      5-min Rain = 0
KTAS 041533Z 33007KT 29/16 A3008 RMK A01 T02870157  RH  045%=      5-min Rain = 0
KTAS 041534Z 33008KT 29/16 A3008 RMK A01 T02870157  RH  045%=      5-min Rain = 0
KTAS 041535Z 33009KT 29/16 A3008 RMK A01 T02870155  RH  045%=      5-min Rain = 0
KTAS 041536Z 34008KT 29/16 A3008 RMK A01 T02870155  RH  045%=      5-min Rain = 0
KTAS 041537Z 34007KT 29/16 A3008 RMK A01 T02860155  RH  045%=      5-min Rain = 0
KTAS 041538Z 33007KT 29/16 A3008 RMK A01 T02860157  RH  045%=      5-min Rain = 0
KTAS 041539Z 33007KT 29/16 A3008 RMK A01 T02860157  RH  045%=      5-min Rain = 0
KTAS 041540Z 33008KT 29/16 A3008 RMK A01 T02860156  RH  045%=      5-min Rain = 0
KTAS 041541Z 34007KT 29/16 A3008 RMK A01 T02850156  RH  045%=      5-min Rain = 0
KTAS 041542Z 33007KT 29/16 A3008 RMK A01 T02860157  RH  045%=      5-min Rain = 0
KTAS 041543Z 34006KT 29/16 A3008 RMK A01 T02870157  RH  045%=      5-min Rain = 0
KTAS 041544Z 33006KT 29/16 A3008 RMK A01 T02870158  RH  045%=      5-min Rain = 0
KTAS 041545Z 33006KT 29/16 A3008 RMK A01 T02880157  RH  045%=      5-min Rain = 0
KTAS 041546Z 32006KT 29/16 A3008 RMK A01 T02880158  RH  045%=      5-min Rain = 0
KTAS 041547Z 33006KT 29/16 A3008 RMK A01 T02890159  RH  045%=      5-min Rain = 0
KTAS 041548Z 32007KT 29/16 A3008 RMK A01 T02890156  RH  045%=      5-min Rain = 0
KTAS 041549Z 33007KT 29/16 A3008 RMK A01 T02900157  RH  044%=      5-min Rain = 0
KTAS 041550Z 32008KT 29/16 A3008 RMK A01 T02910158  RH  044%=      5-min Rain = 0
KTAS 041551Z 32007KT 29/16 A3008 RMK A01 T02930156  RH  044%=      5-min Rain = 0
KTAS 041552Z 33006KT 30/16 A3008 RMK A01 T02950162  RH  044%=      5-min Rain = 0
KTAS 041553Z 33008KT 30/16 A3008 RMK A01 T02980158  RH  043%=      5-min Rain = 0
KTAS 041554Z 34007KT 30/16 A3008 RMK A01 T02990158  RH  042%=      5-min Rain = 0
KTAS 041555Z 32006KT 30/16 A3008 RMK A01 T03010156  RH  042%=      5-min Rain = 0
KTAS 041556Z 32006KT 30/16 A3008 RMK A01 T03020156  RH  041%=      5-min Rain = 0
KTAS 041557Z 34007G12KT 30/16 A3008 RMK A01 T03030157  RH  041%=      5-min Rain = 0
KTAS 041558Z 33007KT 31/16 A3008 RMK A01 T03060157  RH  040%=      5-min Rain = 0
KTAS 041559Z 36007KT 31/16 A3008 RMK A01 T03070155  RH  040%=      5-min Rain = 0
KTAS 041600Z 35007KT 31/16 A3008 RMK A01 T03080157  RH  040%=      5-min Rain = 0
KTAS 041601Z 32005KT 31/16 A3008 RMK A01 T03090155  RH  039%=      5-min Rain = 0
KTAS 041602Z 32006KT 31/16 A3008 RMK A01 T03100155  RH  039%=      5-min Rain = 0
KTAS 041603Z 36005KT 31/16 A3008 RMK A01 T03110155  RH  039%=      5-min Rain = 0
KTAS 041604Z 02005KT 31/16 A3008 RMK A01 T03120155  RH  039%=      5-min Rain = 0
KTAS 041605Z 35008KT 31/15 A3008 RMK A01 T03130151  RH  038%=      5-min Rain = 0
KTAS 041606Z 35006KT 31/15 A3008 RMK A01 T03110149  RH  037%=      5-min Rain = 0
KTAS 041607Z 00006KT 31/14 A3008 RMK A01 T03100144  RH  036%=      5-min Rain = 0
KTAS 041608Z 33007KT 31/14 A3008 RMK A01 T03090144  RH  037%=      5-min Rain = 0
KTAS 041609Z 34006KT 31/15 A3008 RMK A01 T03090148  RH  038%=      5-min Rain = 0
KTAS 041610Z 33004KT 31/15 A3008 RMK A01 T03100145  RH  037%=      5-min Rain = 0
KTAS 041611Z 33007KT 31/15 A3008 RMK A01 T03100147  RH  037%=      5-min Rain = 0
KTAS 041612Z 00005KT 31/15 A3008 RMK A01 T03110145  RH  036%=      5-min Rain = 0
KTAS 041613Z 34006KT 31/15 A3008 RMK A01 T03130150  RH  037%=      5-min Rain = 0
KTAS 041614Z 33006KT 31/15 A3008 RMK A01 T03140145  RH  036%=      5-min Rain = 0
KTAS 041615Z 32006KT 31/15 A3008 RMK A01 T03130147  RH  037%=      5-min Rain = 0
KTAS 041616Z 30004KT 31/14 A3008 RMK A01 T03130144  RH  036%=      5-min Rain = 0
KTAS 041617Z 32006KT 31/15 A3008 RMK A01 T03120146  RH  036%=      5-min Rain = 0
KTAS 041618Z 33005KT 31/15 A3008 RMK A01 T03130147  RH  036%=      5-min Rain = 0
KTAS 041619Z 31007KT 31/15 A3008 RMK A01 T03140147  RH  036%=      5-min Rain = 0
KTAS 041620Z 32004KT 31/15 A3008 RMK A01 T03140147  RH  036%=      5-min Rain = 0
KTAS 041621Z 33006KT 32/15 A3008 RMK A01 T03170151  RH  037%=      5-min Rain = 0
KTAS 041622Z 35002KT 32/15 A3008 RMK A01 T03210152  RH  036%=      5-min Rain = 0
KTAS 041623Z 31004KT 32/15 A3008 RMK A01 T03220147  RH  035%=      5-min Rain = 0
KTAS 041624Z 30006KT 32/15 A3008 RMK A01 T03230147  RH  035%=      5-min Rain = 0
KTAS 041625Z 31010KT 32/14 A3008 RMK A01 T03210141  RH  034%=      5-min Rain = 0
KTAS 041626Z 30007KT 32/14 A3008 RMK A01 T03180140  RH  034%=      5-min Rain = 0
KTAS 041627Z 30006KT 32/14 A3008 RMK A01 T03170140  RH  034%=      5-min Rain = 0
KTAS 041628Z 28005KT 32/14 A3008 RMK A01 T03170142  RH  034%=      5-min Rain = 0
KTAS 041629Z 32006KT 32/14 A3008 RMK A01 T03190143  RH  035%=      5-min Rain = 0
KTAS 041630Z 32009KT 32/15 A3008 RMK A01 T03200148  RH  035%=      5-min Rain = 0
KTAS 041631Z 31007KT 32/15 A3008 RMK A01 T03200145  RH  035%=      5-min Rain = 0
KTAS 041632Z 30005KT 32/14 A3008 RMK A01 T03180143  RH  035%=      5-min Rain = 0
KTAS 041633Z 31003KT 32/14 A3008 RMK A01 T03180143  RH  035%=      5-min Rain = 0
KTAS 041634Z 30007KT 32/15 A3008 RMK A01 T03190148  RH  035%=      5-min Rain = 0
KTAS 041635Z 30006KT 32/15 A3008 RMK A01 T03230151  RH  035%=      5-min Rain = 0
KTAS 041636Z 30008KT 33/15 A3008 RMK A01 T03250147  RH  034%=      5-min Rain = 0
KTAS 041637Z 29003KT 33/15 A3008 RMK A01 T03250145  RH  034%=      5-min Rain = 0
KTAS 041638Z 29004KT 32/15 A3008 RMK A01 T03240146  RH  034%=      5-min Rain = 0
KTAS 041639Z 30009KT 33/15 A3008 RMK A01 T03250149  RH  035%=      5-min Rain = 0
KTAS 041640Z 31009KT 32/14 A3008 RMK A01 T03230143  RH  034%=      5-min Rain = 0
KTAS 041641Z 33004KT 32/14 A3008 RMK A01 T03220144  RH  034%=      5-min Rain = 0
KTAS 041642Z 30006KT 33/15 A3008 RMK A01 T03250147  RH  034%=      5-min Rain = 0
KTAS 041643Z 32006KT 33/14 A3008 RMK A01 T03270143  RH  033%=      5-min Rain = 0
KTAS 041644Z 32004KT 33/14 A3008 RMK A01 T03250140  RH  033%=      5-min Rain = 0
KTAS 041645Z 30005KT 33/15 A3008 RMK A01 T03270145  RH  033%=      5-min Rain = 0
KTAS 041646Z 30006KT 33/14 A3008 RMK A01 T03300143  RH  032%=      5-min Rain = 0
KTAS 041647Z 29004KT 33/14 A3008 RMK A01 T03280140  RH  032%=      5-min Rain = 0
KTAS 041648Z 29004KT 33/14 A3008 RMK A01 T03280139  RH  032%=      5-min Rain = 0
KTAS 041649Z 28006KT 33/14 A3008 RMK A01 T03280142  RH  033%=      5-min Rain = 0
KTAS 041650Z 27008KT 33/14 A3008 RMK A01 T03270143  RH  033%=      5-min Rain = 0
KTAS 041651Z 26007KT 33/14 A3008 RMK A01 T03260141  RH  033%=      5-min Rain = 0
KTAS 041652Z 27006KT 33/14 A3008 RMK A01 T03260139  RH  032%=      5-min Rain = 0
KTAS 041653Z 29006KT 33/14 A3008 RMK A01 T03250139  RH  033%=      5-min Rain = 0
KTAS 041654Z 28008KT 32/14 A3008 RMK A01 T03240140  RH  033%=      5-min Rain = 0
KTAS 041655Z 28008KT 32/14 A3008 RMK A01 T03210136  RH  033%=      5-min Rain = 0
KTAS 041656Z 28007KT 32/14 A3008 RMK A01 T03200136  RH  033%=      5-min Rain = 0
KTAS 041657Z 28007KT 32/14 A3008 RMK A01 T03190137  RH  033%=      5-min Rain = 0
KTAS 041658Z 28007KT 32/14 A3008 RMK A01 T03190140  RH  034%=      5-min Rain = 0
KTAS 041659Z 28006KT 32/14 A3008 RMK A01 T03210141  RH  034%=      5-min Rain = 0
KTAS 041700Z 29006KT 32/14 A3008 RMK A01 T03200139  RH  033%=      5-min Rain = 0
KTAS 041701Z 29005KT 32/14 A3008 RMK A01 T03200139  RH  033%=      5-min Rain = 0
KTAS 041702Z 28007KT 32/14 A3008 RMK A01 T03240144  RH  034%=      5-min Rain = 0
KTAS 041703Z 29005KT 33/14 A3008 RMK A01 T03260140  RH  032%=      5-min Rain = 0
KTAS 041704Z 30006KT 33/14 A3008 RMK A01 T03260142  RH  033%=      5-min Rain = 0
KTAS 041705Z 32007KT 33/14 A3008 RMK A01 T03270143  RH  033%=      5-min Rain = 0
KTAS 041706Z 32007KT 33/14 A3008 RMK A01 T03260141  RH  033%=      5-min Rain = 0
KTAS 041707Z 32008KT 33/14 A3008 RMK A01 T03260144  RH  033%=      5-min Rain = 0
KTAS 041708Z 33005KT 33/14 A3008 RMK A01 T03270140  RH  032%=      5-min Rain = 0
KTAS 041709Z 33006KT 33/14 A3008 RMK A01 T03260140  RH  033%=      5-min Rain = 0
KTAS 041710Z 33006KT 32/14 A3008 RMK A01 T03240141  RH  033%=      5-min Rain = 0
KTAS 041711Z 34004KT 32/14 A3008 RMK A01 T03240141  RH  033%=      5-min Rain = 0
KTAS 041712Z 32004KT 32/14 A3008 RMK A01 T03240140  RH  033%=      5-min Rain = 0
KTAS 041713Z 32003KT 32/14 A3008 RMK A01 T03240138  RH  032%=      5-min Rain = 0
KTAS 041714Z 00005KT 33/14 A3008 RMK A01 T03250138  RH  032%=      5-min Rain = 0
KTAS 041715Z 02003KT 32/14 A3008 RMK A01 T03240136  RH  032%=      5-min Rain = 0
KTAS 041716Z 35002KT 32/14 A3008 RMK A01 T03240136  RH  032%=      5-min Rain = 0
KTAS 041717Z 31004KT 33/14 A3008 RMK A01 T03250138  RH  032%=      5-min Rain = 0
KTAS 041718Z 31004KT 33/14 A3008 RMK A01 T03250139  RH  033%=      5-min Rain = 0
KTAS 041719Z 29003KT 33/14 A3008 RMK A01 T03260140  RH  032%=      5-min Rain = 0
KTAS 041720Z 30003KT 33/14 A3008 RMK A01 T03270139  RH  032%=      5-min Rain = 0
KTAS 041721Z 34004KT 33/14 A3008 RMK A01 T03270139  RH  032%=      5-min Rain = 0
KTAS 041722Z 32004KT 33/15 A3008 RMK A01 T03290145  RH  033%=      5-min Rain = 0
KTAS 041723Z 31008KT 33/14 A3008 RMK A01 T03290139  RH  032%=      5-min Rain = 0
KTAS 041724Z 32008KT 33/14 A3008 RMK A01 T03280141  RH  032%=      5-min Rain = 0
KTAS 041725Z 32007KT 33/14 A3008 RMK A01 T03270139  RH  032%=      5-min Rain = 0
KTAS 041726Z 32007KT 33/14 A3008 RMK A01 T03270139  RH  032%=      5-min Rain = 0
KTAS 041727Z 33005KT 33/14 A3008 RMK A01 T03260139  RH  032%=      5-min Rain = 0
KTAS 041728Z 31006KT 33/14 A3008 RMK A01 T03280144  RH  033%=      5-min Rain = 0
KTAS 041729Z 31007KT 33/14 A3008 RMK A01 T03300143  RH  032%=      5-min Rain = 0
KTAS 041730Z 30009KT 33/14 A3008 RMK A01 T03320144  RH  032%=      5-min Rain = 0
KTAS 041731Z 29007KT 33/14 A3008 RMK A01 T03340144  RH  032%=      5-min Rain = 0
KTAS 041732Z 27005KT 34/14 A3008 RMK A01 T03350139  RH  031%=      5-min Rain = 0
KTAS 041733Z 32007KT 34/14 A3008 RMK A01 T03350143  RH  032%=      5-min Rain = 0
KTAS 041734Z 32006KT 34/14 A3008 RMK A01 T03370140  RH  031%=      5-min Rain = 0
KTAS 041735Z 34006KT 34/14 A3008 RMK A01 T03390144  RH  031%=      5-min Rain = 0
KTAS 041736Z 35005KT 34/14 A3008 RMK A01 T03400139  RH  030%=      5-min Rain = 0
KTAS 041737Z 00005KT 34/14 A3008 RMK A01 T03380137  RH  030%=      5-min Rain = 0
KTAS 041738Z 02004KT 34/13 A3008 RMK A01 T03350133  RH  030%=      5-min Rain = 0
KTAS 041739Z 03004KT 33/14 A3008 RMK A01 T03340136  RH  030%=      5-min Rain = 0
KTAS 041740Z 36004KT 34/14 A3008 RMK A01 T03350137  RH  030%=      5-min Rain = 0
KTAS 041741Z 04004KT 34/14 A3008 RMK A01 T03360137  RH  030%=      5-min Rain = 0
KTAS 041742Z 00005KT 34/14 A3008 RMK A01 T03380140  RH  030%=      5-min Rain = 0
KTAS 041743Z 36005KT 34/14 A3008 RMK A01 T03390141  RH  030%=      5-min Rain = 0
KTAS 041744Z 34006G11KT 34/14 A3008 RMK A01 T03400141  RH  030%=      5-min Rain = 0
KTAS 041745Z 31007KT 34/15 A3008 RMK A01 T03430145  RH  031%=      5-min Rain = 0
KTAS 041746Z 29007KT 34/14 A3008 RMK A01 T03430139  RH  029%=      5-min Rain = 0
KTAS 041747Z 30007KT 34/14 A3008 RMK A01 T03400137  RH  029%=      5-min Rain = 0
KTAS 041748Z 30006KT 34/14 A3008 RMK A01 T03400140  RH  030%=      5-min Rain = 0
KTAS 041749Z 32006KT 34/14 A3008 RMK A01 T03420140  RH  030%=      5-min Rain = 0
KTAS 041750Z 32007KT 34/14 A3008 RMK A01 T03420138  RH  029%=      5-min Rain = 0
KTAS 041751Z 32008KT 34/14 A3008 RMK A01 T03420139  RH  029%=      5-min Rain = 0
KTAS 041752Z 33006KT 34/13 A3008 RMK A01 T03390131  RH  029%=      5-min Rain = 0
KTAS 041753Z 30004KT 33/13 A3008 RMK A01 T03340129  RH  029%=      5-min Rain = 0
KTAS 041754Z 31004KT 33/13 A3008 RMK A01 T03310130  RH  030%=      5-min Rain = 0
KTAS 041755Z 31005KT 33/13 A3008 RMK A01 T03310134  RH  030%=      5-min Rain = 0
KTAS 041756Z 34004G9KT 33/14 A3008 RMK A01 T03320136  RH  030%=      5-min Rain = 0
KTAS 041757Z 35008KT 33/14 A3007 RMK A01 T03330135  RH  030%=      5-min Rain = 0
KTAS 041758Z 36006KT 33/14 A3007 RMK A01 T03330138  RH  031%=      5-min Rain = 0
KTAS 041759Z 33005KT 34/14 A3008 RMK A01 T03380140  RH  030%=      5-min Rain = 0
KTAS 041800Z 31006KT 34/14 A3008 RMK A01 T03400137  RH  029%=      5-min Rain = 0
KTAS 041801Z 33002KT 34/13 A3008 RMK A01 T03370130  RH  029%=      5-min Rain = 0
KTAS 041802Z 34002KT 34/13 A3007 RMK A01 T03360132  RH  029%=      5-min Rain = 0
KTAS 041803Z 33005KT 34/14 A3007 RMK A01 T03370137  RH  030%=      5-min Rain = 0
KTAS 041804Z 34002KT 34/13 A3007 RMK A01 T03350129  RH  029%=      5-min Rain = 0
KTAS 041805Z 35001KT 33/13 A3007 RMK A01 T03340129  RH  029%=      5-min Rain = 0
KTAS 041806Z 34003KT 34/13 A3007 RMK A01 T03360132  RH  029%=      5-min Rain = 0
KTAS 041807Z 31005KT 34/13 A3007 RMK A01 T03360134  RH  029%=      5-min Rain = 0
KTAS 041808Z 31005KT 33/14 A3007 RMK A01 T03340135  RH  030%=      5-min Rain = 0
KTAS 041809Z 28003KT 33/13 A3007 RMK A01 T03340132  RH  030%=      5-min Rain = 0
KTAS 041810Z 33004KT 34/14 A3007 RMK A01 T03350139  RH  031%=      5-min Rain = 0
KTAS 041811Z 31004KT 34/14 A3007 RMK A01 T03390140  RH  030%=      5-min Rain = 0
KTAS 041812Z 32005KT 34/14 A3007 RMK A01 T03400137  RH  029%=      5-min Rain = 0
KTAS 041813Z 34004KT 34/14 A3007 RMK A01 T03390136  RH  029%=      5-min Rain = 0
KTAS 041814Z 00006KT 34/14 A3007 RMK A01 T03400138  RH  030%=      5-min Rain = 0
KTAS 041815Z 31004KT 34/14 A3007 RMK A01 T03420142  RH  030%=      5-min Rain = 0
KTAS 041816Z 36005KT 34/14 A3007 RMK A01 T03440139  RH  029%=      5-min Rain = 0
KTAS 041817Z 03005KT 34/14 A3007 RMK A01 T03430136  RH  029%=      5-min Rain = 0
KTAS 041818Z 36006KT 34/14 A3007 RMK A01 T03400136  RH  029%=      5-min Rain = 0
KTAS 041819Z 36006KT 34/14 A3007 RMK A01 T03380135  RH  029%=      5-min Rain = 0
KTAS 041820Z 01005KT 34/13 A3007 RMK A01 T03370133  RH  029%=      5-min Rain = 0
KTAS 041821Z 01006KT 34/13 A3007 RMK A01 T03360134  RH  030%=      5-min Rain = 0
KTAS 041822Z 03006KT 34/14 A3007 RMK A01 T03350135  RH  030%=      5-min Rain = 0
KTAS 041823Z 03005KT 33/13 A3007 RMK A01 T03340132  RH  030%=      5-min Rain = 0
KTAS 041824Z 03006KT 33/14 A3007 RMK A01 T03330135  RH  030%=      5-min Rain = 0
KTAS 041825Z 03006KT 33/14 A3007 RMK A01 T03330135  RH  030%=      5-min Rain = 0
KTAS 041826Z 02005KT 33/14 A3007 RMK A01 T03330136  RH  030%=      5-min Rain = 0
KTAS 041827Z 34004KT 34/14 A3007 RMK A01 T03350137  RH  030%=      5-min Rain = 0
KTAS 041828Z 33003KT 34/13 A3007 RMK A01 T03350133  RH  030%=      5-min Rain = 0
KTAS 041829Z 34003KT 34/14 A3007 RMK A01 T03350136  RH  030%=      5-min Rain = 0
KTAS 041830Z 35004KT 34/14 A3007 RMK A01 T03360137  RH  030%=      5-min Rain = 0
KTAS 041831Z 34004KT 34/13 A3007 RMK A01 T03350134  RH  030%=      5-min Rain = 0
KTAS 041832Z 32004KT 33/13 A3007 RMK A01 T03340133  RH  030%=      5-min Rain = 0
KTAS 041833Z 34003KT 33/13 A3007 RMK A01 T03340133  RH  030%=      5-min Rain = 0
KTAS 041834Z 33005KT 33/13 A3007 RMK A01 T03340133  RH  030%=      5-min Rain = 0
KTAS 041835Z 34004KT 33/14 A3007 RMK A01 T03340136  RH  030%=      5-min Rain = 0
KTAS 041836Z 36005KT 33/14 A3007 RMK A01 T03340138  RH  031%=      5-min Rain = 0
KTAS 041837Z 00006KT 33/14 A3007 RMK A01 T03340136  RH  030%=      5-min Rain = 0
KTAS 041838Z 00004KT 33/14 A3007 RMK A01 T03340137  RH  030%=      5-min Rain = 0
KTAS 041839Z 36007KT 33/13 A3007 RMK A01 T03340134  RH  030%=      5-min Rain = 0
KTAS 041840Z 35005KT 33/13 A3007 RMK A01 T03310131  RH  030%=      5-min Rain = 0
KTAS 041841Z 03003KT 33/14 A3006 RMK A01 T03310135  RH  031%=      5-min Rain = 0
KTAS 041842Z 03004KT 33/13 A3006 RMK A01 T03320133  RH  030%=      5-min Rain = 0
KTAS 041843Z 03004KT 33/13 A3006 RMK A01 T03320130  RH  029%=      5-min Rain = 0
KTAS 041844Z 06003KT 33/13 A3006 RMK A01 T03310132  RH  030%=      5-min Rain = 0
KTAS 041845Z 07003KT 33/13 A3006 RMK A01 T03310134  RH  030%=      5-min Rain = 0
KTAS 041846Z 04003KT 33/13 A3006 RMK A01 T03330134  RH  030%=      5-min Rain = 0
KTAS 041847Z 03004KT 34/13 A3006 RMK A01 T03350131  RH  029%=      5-min Rain = 0
KTAS 041848Z 05002KT 34/13 A3006 RMK A01 T03360128  RH  028%=      5-min Rain = 0
KTAS 041849Z 35005KT 34/14 A3006 RMK A01 T03380136  RH  030%=      5-min Rain = 0
KTAS 041850Z 35004KT 34/13 A3006 RMK A01 T03380133  RH  029%=      5-min Rain = 0
KTAS 041851Z 35005KT 34/13 A3006 RMK A01 T03370131  RH  029%=      5-min Rain = 0
KTAS 041852Z 05005KT 34/13 A3006 RMK A01 T03370134  RH  029%=      5-min Rain = 0
KTAS 041853Z 07006KT 34/13 A3006 RMK A01 T03380134  RH  029%=      5-min Rain = 0
KTAS 041854Z 05005KT 34/13 A3006 RMK A01 T03380130  RH  028%=      5-min Rain = 0
KTAS 041855Z 06003KT 34/13 A3006 RMK A01 T03360128  RH  028%=      5-min Rain = 0
KTAS 041856Z 03002KT 34/13 A3006 RMK A01 T03350127  RH  028%=      5-min Rain = 0
KTAS 041857Z 03000KT 34/13 A3006 RMK A01 T03350125  RH  028%=      5-min Rain = 0
KTAS 041858Z 00000KT 34/12 A3006 RMK A01 T03350124  RH  028%=      5-min Rain = 0
KTAS 041859Z 02000KT 34/12 A3006 RMK A01 T03350124  RH  028%=      5-min Rain = 0
KTAS 041900Z 06001KT 34/13 A3006 RMK A01 T03350128  RH  029%=      5-min Rain = 0
KTAS 041901Z 07002KT 33/13 A3006 RMK A01 T03340126  RH  028%=      5-min Rain = 0
KTAS 041902Z 05004KT 33/13 A3006 RMK A01 T03320127  RH  029%=      5-min Rain = 0
KTAS 041903Z 03006KT 33/13 A3006 RMK A01 T03310131  RH  030%=      5-min Rain = 0
KTAS 041904Z 04007KT 33/13 A3006 RMK A01 T03310133  RH  030%=      5-min Rain = 0
KTAS 041905Z 05006KT 33/13 A3006 RMK A01 T03310131  RH  030%=      5-min Rain = 0
KTAS 041906Z 05005KT 33/13 A3006 RMK A01 T03320129  RH  029%=      5-min Rain = 0
KTAS 041907Z 04004KT 33/13 A3006 RMK A01 T03330131  RH  029%=      5-min Rain = 0
KTAS 041908Z 03003KT 33/13 A3006 RMK A01 T03340130  RH  029%=      5-min Rain = 0
KTAS 041909Z 03003KT 34/13 A3006 RMK A01 T03350128  RH  029%=      5-min Rain = 0
KTAS 041910Z 05003KT 34/13 A3006 RMK A01 T03360127  RH  028%=      5-min Rain = 0
KTAS 041911Z 05002KT 34/13 A3006 RMK A01 T03370126  RH  028%=      5-min Rain = 0
KTAS 041912Z 08001KT 34/12 A3006 RMK A01 T03370124  RH  027%=      5-min Rain = 0
KTAS 041913Z 08005KT 34/13 A3005 RMK A01 T03400132  RH  028%=      5-min Rain = 0
KTAS 041914Z 07006KT 34/13 A3005 RMK A01 T03410130  RH  028%=      5-min Rain = 0
KTAS 041915Z 07004KT 34/13 A3005 RMK A01 T03430132  RH  028%=      5-min Rain = 0
KTAS 041916Z 09003KT 35/13 A3005 RMK A01 T03450126  RH  027%=      5-min Rain = 0
KTAS 041917Z 14003KT 35/13 A3005 RMK A01 T03460125  RH  026%=      5-min Rain = 0
KTAS 041918Z 07004KT 35/13 A3005 RMK A01 T03480130  RH  027%=      5-min Rain = 0
KTAS 041919Z 06006KT 35/13 A3005 RMK A01 T03490132  RH  027%=      5-min Rain = 0
KTAS 041920Z 03005KT 35/13 A3005 RMK A01 T03500132  RH  027%=      5-min Rain = 0
KTAS 041921Z 06006KT 35/13 A3005 RMK A01 T03490130  RH  027%=      5-min Rain = 0
KTAS 041922Z 05005KT 35/13 A3005 RMK A01 T03500134  RH  027%=      5-min Rain = 0
KTAS 041923Z 07009KT 35/13 A3005 RMK A01 T03520133  RH  027%=      5-min Rain = 0
KTAS 041924Z 06005KT 35/13 A3005 RMK A01 T03510130  RH  027%=      5-min Rain = 0
KTAS 041925Z 08003KT 35/13 A3005 RMK A01 T03480127  RH  026%=      5-min Rain = 0
KTAS 041926Z 10003KT 35/13 A3005 RMK A01 T03470127  RH  027%=      5-min Rain = 0
KTAS 041927Z 11005KT 35/13 A3005 RMK A01 T03490130  RH  027%=      5-min Rain = 0
KTAS 041928Z 14004KT 35/13 A3004 RMK A01 T03500128  RH  026%=      5-min Rain = 0
KTAS 041929Z 10003KT 35/13 A3005 RMK A01 T03510130  RH  026%=      5-min Rain = 0
KTAS 041930Z 04006KT 35/13 A3005 RMK A01 T03510132  RH  027%=      5-min Rain = 0
KTAS 041931Z 04009KT 35/14 A3004 RMK A01 T03540137  RH  027%=      5-min Rain = 0
KTAS 041932Z 03003G8KT 35/13 A3004 RMK A01 T03520126  RH  026%=      5-min Rain = 0
KTAS 041933Z 05003G9KT 35/14 A3004 RMK A01 T03510135  RH  027%=      5-min Rain = 0
KTAS 041934Z 08008KT 35/14 A3004 RMK A01 T03540137  RH  027%=      5-min Rain = 0
KTAS 041935Z 06009KT 35/13 A3004 RMK A01 T03520130  RH  026%=      5-min Rain = 0
KTAS 041936Z 07009KT 35/13 A3004 RMK A01 T03460129  RH  027%=      5-min Rain = 0
KTAS 041937Z 07007KT 34/13 A3004 RMK A01 T03430128  RH  027%=      5-min Rain = 0
KTAS 041938Z 07005KT 34/13 A3004 RMK A01 T03420127  RH  027%=      5-min Rain = 0
KTAS 041939Z 06006KT 34/13 A3004 RMK A01 T03430130  RH  028%=      5-min Rain = 0
KTAS 041940Z 06005KT 35/13 A3004 RMK A01 T03460130  RH  027%=      5-min Rain = 0
KTAS 041941Z 07005KT 35/13 A3004 RMK A01 T03470128  RH  027%=      5-min Rain = 0
KTAS 041942Z 10004KT 35/13 A3004 RMK A01 T03460128  RH  027%=      5-min Rain = 0
KTAS 041943Z 10004KT 35/13 A3004 RMK A01 T03460127  RH  027%=      5-min Rain = 0
KTAS 041944Z 13003KT 35/13 A3004 RMK A01 T03460128  RH  027%=      5-min Rain = 0
KTAS 041945Z 15002KT 35/13 A3004 RMK A01 T03480127  RH  026%=      5-min Rain = 0
KTAS 041946Z 18003KT 35/13 A3004 RMK A01 T03500128  RH  026%=      5-min Rain = 0
KTAS 041947Z 15006KT 35/13 A3004 RMK A01 T03510130  RH  026%=      5-min Rain = 0
KTAS 041948Z 16004KT 35/13 A3004 RMK A01 T03500126  RH  026%=      5-min Rain = 0
KTAS 041949Z 21003KT 35/13 A3004 RMK A01 T03480126  RH  026%=      5-min Rain = 0
KTAS 041950Z 25002KT 35/13 A3003 RMK A01 T03490126  RH  026%=      5-min Rain = 0
KTAS 041951Z 17002KT 35/13 A3003 RMK A01 T03500131  RH  027%=      5-min Rain = 0
KTAS 041952Z 11004KT 35/13 A3003 RMK A01 T03540131  RH  026%=      5-min Rain = 0
KTAS 041953Z 11004KT 35/13 A3003 RMK A01 T03520128  RH  026%=      5-min Rain = 0
KTAS 041954Z 11007KT 35/13 A3003 RMK A01 T03530134  RH  027%=      5-min Rain = 0
KTAS 041955Z 09007KT 36/13 A3003 RMK A01 T03570134  RH  026%=      5-min Rain = 0
KTAS 041956Z 08006KT 36/13 A3003 RMK A01 T03570129  RH  025%=      5-min Rain = 0
KTAS 041957Z 10006KT 36/13 A3003 RMK A01 T03560133  RH  026%=      5-min Rain = 0
KTAS 041958Z 08006KT 36/13 A3003 RMK A01 T03590134  RH  026%=      5-min Rain = 0
KTAS 041959Z 09004KT 36/13 A3003 RMK A01 T03580128  RH  025%=      5-min Rain = 0
KTAS 042000Z 11002KT 36/13 A3003 RMK A01 T03570127  RH  025%=      5-min Rain = 0
KTAS 042001Z 12004KT 36/13 A3003 RMK A01 T03570128  RH  025%=      5-min Rain = 0
KTAS 042002Z 12003KT 36/13 A3003 RMK A01 T03570130  RH  026%=      5-min Rain = 0
KTAS 042003Z 10005KT 36/13 A3003 RMK A01 T03570131  RH  026%=      5-min Rain = 0
KTAS 042004Z 16006KT 36/13 A3003 RMK A01 T03550130  RH  026%=      5-min Rain = 0
KTAS 042005Z 19004KT 35/13 A3003 RMK A01 T03540128  RH  026%=      5-min Rain = 0
KTAS 042006Z 21002KT 35/13 A3003 RMK A01 T03510126  RH  026%=      5-min Rain = 0
KTAS 042007Z 03003KT 35/13 A3003 RMK A01 T03490130  RH  027%=      5-min Rain = 0
KTAS 042008Z 06004KT 35/13 A3003 RMK A01 T03500126  RH  026%=      5-min Rain = 0
KTAS 042009Z 08006KT 35/13 A3003 RMK A01 T03530125  RH  025%=      5-min Rain = 0
KTAS 042010Z 09008KT 36/13 A3003 RMK A01 T03550125  RH  025%=      5-min Rain = 0
KTAS 042011Z 10005KT 36/12 A3003 RMK A01 T03560124  RH  025%=      5-min Rain = 0
KTAS 042012Z 12004KT 36/12 A3003 RMK A01 T03550118  RH  024%=      5-min Rain = 0
KTAS 042013Z 10002KT 35/12 A3003 RMK A01 T03530118  RH  024%=      5-min Rain = 0
KTAS 042014Z 11004KT 35/12 A3003 RMK A01 T03520119  RH  025%=      5-min Rain = 0
KTAS 042015Z 14005KT 36/12 A3003 RMK A01 T03550121  RH  024%=      5-min Rain = 0
KTAS 042016Z 16003KT 36/12 A3002 RMK A01 T03580115  RH  023%=      5-min Rain = 0
KTAS 042017Z 12004KT 36/11 A3002 RMK A01 T03590114  RH  023%=      5-min Rain = 0
KTAS 042018Z 09005KT 36/12 A3002 RMK A01 T03600117  RH  023%=      5-min Rain = 0
KTAS 042019Z 06007KT 36/12 A3002 RMK A01 T03600115  RH  023%=      5-min Rain = 0
KTAS 042020Z 07007KT 36/12 A3002 RMK A01 T03590117  RH  023%=      5-min Rain = 0
KTAS 042021Z 07008KT 36/12 A3002 RMK A01 T03590119  RH  023%=      5-min Rain = 0
KTAS 042022Z 07006KT 36/12 A3002 RMK A01 T03600120  RH  024%=      5-min Rain = 0
KTAS 042023Z 06007KT 36/12 A3002 RMK A01 T03600118  RH  023%=      5-min Rain = 0
KTAS 042024Z 06006KT 36/12 A3002 RMK A01 T03600122  RH  024%=      5-min Rain = 0
KTAS 042025Z 06005KT 36/12 A3002 RMK A01 T03630122  RH  024%=      5-min Rain = 0
KTAS 042026Z 04006KT 37/12 A3002 RMK A01 T03650118  RH  023%=      5-min Rain = 0
KTAS 042027Z 07004KT 36/12 A3002 RMK A01 T03620116  RH  023%=      5-min Rain = 0
KTAS 042028Z 04001KT 36/12 A3002 RMK A01 T03610115  RH  023%=      5-min Rain = 0
KTAS 042029Z 00001KT 36/12 A3002 RMK A01 T03590115  RH  023%=      5-min Rain = 0
KTAS 042030Z 26000KT 36/11 A3002 RMK A01 T03570114  RH  023%=      5-min Rain = 0
KTAS 042031Z 04004KT 36/12 A3002 RMK A01 T03570119  RH  024%=      5-min Rain = 0
KTAS 042032Z 03003KT 36/12 A3002 RMK A01 T03570121  RH  024%=      5-min Rain = 0
KTAS 042033Z 04003KT 36/12 A3002 RMK A01 T03550117  RH  024%=      5-min Rain = 0
KTAS 042034Z 10005KT 36/12 A3002 RMK A01 T03560122  RH  024%=      5-min Rain = 0
KTAS 042035Z 10009KT 36/13 A3001 RMK A01 T03570125  RH  025%=      5-min Rain = 0
KTAS 042036Z 11007KT 36/12 A3002 RMK A01 T03610121  RH  024%=      5-min Rain = 0
KTAS 042037Z 09007KT 36/12 A3001 RMK A01 T03610120  RH  023%=      5-min Rain = 0
KTAS 042038Z 10004KT 36/12 A3001 RMK A01 T03620121  RH  023%=      5-min Rain = 0
KTAS 042039Z 08005KT 37/12 A3001 RMK A01 T03650120  RH  023%=      5-min Rain = 0
KTAS 042040Z 07005KT 36/12 A3001 RMK A01 T03640117  RH  023%=      5-min Rain = 0
KTAS 042041Z 04004KT 36/12 A3001 RMK A01 T03620116  RH  023%=      5-min Rain = 0
KTAS 042042Z 02002KT 36/11 A3001 RMK A01 T03600113  RH  023%=      5-min Rain = 0
KTAS 042043Z 22001KT 36/11 A3001 RMK A01 T03600111  RH  022%=      5-min Rain = 0
KTAS 042044Z 19004KT 36/12 A3001 RMK A01 T03600122  RH  024%=      5-min Rain = 0
KTAS 042045Z 18004KT 36/12 A3001 RMK A01 T03600119  RH  023%=      5-min Rain = 0
KTAS 042046Z 18003KT 36/12 A3001 RMK A01 T03560120  RH  024%=      5-min Rain = 0
KTAS 042047Z 20005KT 35/12 A3001 RMK A01 T03540124  RH  025%=      5-min Rain = 0
KTAS 042048Z 20004KT 35/12 A3001 RMK A01 T03520121  RH  025%=      5-min Rain = 0
KTAS 042049Z 19005KT 35/12 A3001 RMK A01 T03510124  RH  025%=      5-min Rain = 0
KTAS 042050Z 22004KT 35/12 A3001 RMK A01 T03500121  RH  025%=      5-min Rain = 0
KTAS 042051Z 24004KT 35/12 A3001 RMK A01 T03490120  RH  025%=      5-min Rain = 0
KTAS 042052Z 26003KT 35/12 A3001 RMK A01 T03520123  RH  025%=      5-min Rain = 0
KTAS 042053Z 26003KT 36/12 A3001 RMK A01 T03560122  RH  024%=      5-min Rain = 0
KTAS 042054Z 24001KT 36/13 A3001 RMK A01 T03610127  RH  025%=      5-min Rain = 0
KTAS 042055Z 19001KT 37/13 A3001 RMK A01 T03660127  RH  024%=      5-min Rain = 0
KTAS 042056Z 28002KT 37/12 A30 RMK A01 T03670123  RH  023%=      5-min Rain = 0
KTAS 042057Z 04005KT 37/12 A30 RMK A01 T03660124  RH  023%=      5-min Rain = 0
KTAS 042058Z 05006KT 37/12 A30 RMK A01 T03650123  RH  023%=      5-min Rain = 0
KTAS 042059Z 07006KT 37/12 A30 RMK A01 T03660124  RH  024%=      5-min Rain = 0
KTAS 042100Z 06006KT 37/12 A30 RMK A01 T03650122  RH  023%=      5-min Rain = 0
KTAS 042101Z 04005KT 36/12 A30 RMK A01 T03610118  RH  023%=      5-min Rain = 0
KTAS 042102Z 05005KT 36/12 A30 RMK A01 T03590118  RH  024%=      5-min Rain = 0
KTAS 042103Z 08008KT 36/12 A30 RMK A01 T03600123  RH  024%=      5-min Rain = 0
KTAS 042104Z 08007KT 37/13 A30 RMK A01 T03650127  RH  024%=      5-min Rain = 0
KTAS 042105Z 05007KT 37/12 A30 RMK A01 T03670124  RH  023%=      5-min Rain = 0
KTAS 042106Z 05007KT 36/12 A30 RMK A01 T03630121  RH  023%=      5-min Rain = 0
KTAS 042107Z 06006KT 36/12 A30 RMK A01 T03560118  RH  024%=      5-min Rain = 0
KTAS 042108Z 05005KT 35/12 A30 RMK A01 T03530120  RH  025%=      5-min Rain = 0
KTAS 042109Z 06005KT 35/12 A30 RMK A01 T03510120  RH  025%=      5-min Rain = 0
KTAS 042110Z 03003KT 35/12 A30 RMK A01 T03490119  RH  025%=      5-min Rain = 0
KTAS 042111Z 01001KT 35/12 A30 RMK A01 T03490116  RH  024%=      5-min Rain = 0
KTAS 042112Z 00000KT 35/12 A30 RMK A01 T03500120  RH  025%=      5-min Rain = 0
KTAS 042113Z 00000KT 35/12 A30 RMK A01 T03520120  RH  025%=      5-min Rain = 0
KTAS 042114Z 26000KT 35/12 A30 RMK A01 T03530119  RH  024%=      5-min Rain = 0
KTAS 042115Z 34001KT 35/12 A30 RMK A01 T03540123  RH  025%=      5-min Rain = 0
KTAS 042116Z 35001KT 35/12 A30 RMK A01 T03540120  RH  024%=      5-min Rain = 0
KTAS 042117Z 34000KT 35/12 A30 RMK A01 T03540118  RH  024%=      5-min Rain = 0
KTAS 042118Z 35000KT 35/12 A30 RMK A01 T03530118  RH  024%=      5-min Rain = 0
KTAS 042119Z 00000KT 35/12 A2999 RMK A01 T03540118  RH  024%=      5-min Rain = 0
KTAS 042120Z 08001KT 35/12 A2999 RMK A01 T03540119  RH  024%=      5-min Rain = 0
KTAS 042121Z 05002KT 35/12 A2999 RMK A01 T03530120  RH  024%=      5-min Rain = 0
KTAS 042122Z 04003KT 35/11 A2999 RMK A01 T03500112  RH  024%=      5-min Rain = 0
KTAS 042123Z 04002KT 35/11 A2999 RMK A01 T03470112  RH  024%=      5-min Rain = 0
KTAS 042124Z 07002KT 35/11 A2999 RMK A01 T03460114  RH  024%=      5-min Rain = 0
KTAS 042125Z 13003KT 35/12 A2999 RMK A01 T03470119  RH  025%=      5-min Rain = 0
KTAS 042126Z 15003KT 35/12 A2999 RMK A01 T03480124  RH  026%=      5-min Rain = 0
KTAS 042127Z 17004KT 35/12 A2999 RMK A01 T03480124  RH  026%=      5-min Rain = 0
KTAS 042128Z 18004KT 35/12 A2999 RMK A01 T03480124  RH  026%=      5-min Rain = 0
KTAS 042129Z 20003KT 35/12 A2999 RMK A01 T03480122  RH  026%=      5-min Rain = 0
KTAS 042130Z 19002KT 35/12 A2999 RMK A01 T03470119  RH  025%=      5-min Rain = 0
KTAS 042131Z 24002KT 35/12 A2999 RMK A01 T03470119  RH  025%=      5-min Rain = 0
KTAS 042132Z 17005KT 35/12 A2999 RMK A01 T03470123  RH  026%=      5-min Rain = 0
KTAS 042133Z 20007KT 35/12 A2999 RMK A01 T03470121  RH  026%=      5-min Rain = 0
KTAS 042134Z 19008KT 35/12 A2999 RMK A01 T03470122  RH  026%=      5-min Rain = 0
KTAS 042135Z 18007KT 35/12 A2999 RMK A01 T03480122  RH  026%=      5-min Rain = 0
KTAS 042136Z 17008KT 35/12 A2999 RMK A01 T03490122  RH  025%=      5-min Rain = 0
KTAS 042137Z 18006KT 35/12 A2999 RMK A01 T03500123  RH  025%=      5-min Rain = 0
KTAS 042138Z 18006KT 35/12 A2999 RMK A01 T03500123  RH  025%=      5-min Rain = 0
KTAS 042139Z 15003KT 35/12 A2999 RMK A01 T03490117  RH  025%=      5-min Rain = 0
KTAS 042140Z 14002KT 35/12 A2999 RMK A01 T03480119  RH  025%=      5-min Rain = 0
KTAS 042141Z 13002KT 35/12 A2998 RMK A01 T03480118  RH  025%=      5-min Rain = 0
KTAS 042142Z 13001KT 35/12 A2998 RMK A01 T03460115  RH  025%=      5-min Rain = 0
KTAS 042143Z 22001KT 35/12 A2998 RMK A01 T03460117  RH  025%=      5-min Rain = 0
KTAS 042144Z 21002KT 35/12 A2998 RMK A01 T03470118  RH  025%=      5-min Rain = 0
KTAS 042145Z 20000KT 35/12 A2998 RMK A01 T03470120  RH  025%=      5-min Rain = 0
KTAS 042146Z 24002KT 35/12 A2998 RMK A01 T03490122  RH  025%=      5-min Rain = 0
KTAS 042147Z 21002KT 35/12 A2998 RMK A01 T03490118  RH  025%=      5-min Rain = 0
KTAS 042148Z 20002KT 35/12 A2998 RMK A01 T03480117  RH  025%=      5-min Rain = 0
KTAS 042149Z 19004KT 35/12 A2998 RMK A01 T03480120  RH  025%=      5-min Rain = 0
KTAS 042150Z 20006KT 35/12 A2998 RMK A01 T03500123  RH  025%=      5-min Rain = 0
KTAS 042151Z 20003KT 35/12 A2998 RMK A01 T03520124  RH  025%=      5-min Rain = 0
KTAS 042152Z 20004KT 36/13 A2998 RMK A01 T03560128  RH  025%=      5-min Rain = 0
KTAS 042153Z 22005KT 36/13 A2998 RMK A01 T03600127  RH  025%=      5-min Rain = 0
KTAS 042154Z 22005KT 36/13 A2998 RMK A01 T03610125  RH  024%=      5-min Rain = 0
KTAS 042155Z 22005KT 36/13 A2998 RMK A01 T03610125  RH  024%=      5-min Rain = 0
KTAS 042156Z 22004KT 36/13 A2998 RMK A01 T03630127  RH  024%=      5-min Rain = 0
KTAS 042157Z 21003KT 37/13 A2997 RMK A01 T03660128  RH  024%=      5-min Rain = 0
KTAS 042158Z 21004KT 37/13 A2997 RMK A01 T03700129  RH  024%=      5-min Rain = 0
KTAS 042159Z 24004KT 37/13 A2997 RMK A01 T03720127  RH  023%=      5-min Rain = 0
KTAS 042200Z 24003KT 37/12 A2997 RMK A01 T03720124  RH  023%=      5-min Rain = 0
KTAS 042201Z 22003KT 37/12 A2997 RMK A01 T03710122  RH  022%=      5-min Rain = 0
KTAS 042202Z 24004KT 37/12 A2997 RMK A01 T03700122  RH  023%=      5-min Rain = 0
KTAS 042203Z 24003KT 37/12 A2997 RMK A01 T03660121  RH  023%=      5-min Rain = 0
KTAS 042204Z 22002KT 37/12 A2997 RMK A01 T03660121  RH  023%=      5-min Rain = 0
KTAS 042205Z 26000KT 37/12 A2997 RMK A01 T03660120  RH  023%=      5-min Rain = 0
KTAS 042206Z 25003KT 37/12 A2997 RMK A01 T03680124  RH  023%=      5-min Rain = 0
KTAS 042207Z 24006KT 37/13 A2997 RMK A01 T03700125  RH  023%=      5-min Rain = 0
KTAS 042208Z 25003KT 37/12 A2997 RMK A01 T03680120  RH  023%=      5-min Rain = 0
KTAS 042209Z 26003KT 37/12 A2997 RMK A01 T03650118  RH  023%=      5-min Rain = 0
KTAS 042210Z 21002KT 37/12 A2997 RMK A01 T03650124  RH  023%=      5-min Rain = 0
KTAS 042211Z 22003KT 37/12 A2997 RMK A01 T03680124  RH  023%=      5-min Rain = 0
KTAS 042212Z 23004KT 37/13 A2997 RMK A01 T03700130  RH  024%=      5-min Rain = 0
KTAS 042213Z 22006KT 37/12 A2997 RMK A01 T03710124  RH  023%=      5-min Rain = 0
KTAS 042214Z 19006KT 37/12 A2997 RMK A01 T03670123  RH  023%=      5-min Rain = 0
KTAS 042215Z 20003KT 36/12 A2997 RMK A01 T03630121  RH  023%=      5-min Rain = 0
KTAS 042216Z 23002KT 36/12 A2997 RMK A01 T03610122  RH  024%=      5-min Rain = 0
KTAS 042217Z 21004KT 36/12 A2997 RMK A01 T03600120  RH  024%=      5-min Rain = 0
KTAS 042218Z 21002KT 36/12 A2997 RMK A01 T03560121  RH  024%=      5-min Rain = 0
KTAS 042219Z 22003KT 36/12 A2997 RMK A01 T03560122  RH  024%=      5-min Rain = 0
KTAS 042220Z 20004KT 36/12 A2996 RMK A01 T03550123  RH  025%=      5-min Rain = 0
KTAS 042221Z 19007KT 36/12 A2996 RMK A01 T03550123  RH  025%=      5-min Rain = 0
KTAS 042222Z 19009KT 35/12 A2996 RMK A01 T03540124  RH  025%=      5-min Rain = 0
KTAS 042223Z 18009KT 35/12 A2996 RMK A01 T03520122  RH  025%=      5-min Rain = 0
KTAS 042224Z 19006KT 35/12 A2996 RMK A01 T03500118  RH  025%=      5-min Rain = 0
KTAS 042225Z 17009KT 35/12 A2996 RMK A01 T03490120  RH  025%=      5-min Rain = 0
KTAS 042226Z 17006KT 35/12 A2996 RMK A01 T03490119  RH  025%=      5-min Rain = 0
KTAS 042227Z 17005KT 35/12 A2996 RMK A01 T03490119  RH  025%=      5-min Rain = 0
KTAS 042228Z 16003KT 35/12 A2996 RMK A01 T03480117  RH  025%=      5-min Rain = 0
KTAS 042229Z 15004KT 35/12 A2996 RMK A01 T03480119  RH  025%=      5-min Rain = 0
KTAS 042230Z 17005KT 35/12 A2996 RMK A01 T03490121  RH  025%=      5-min Rain = 0
KTAS 042231Z 18005KT 35/12 A2996 RMK A01 T03490119  RH  025%=      5-min Rain = 0
KTAS 042232Z 19004KT 35/12 A2996 RMK A01 T03490121  RH  025%=      5-min Rain = 0
KTAS 042233Z 19004KT 35/12 A2996 RMK A01 T03490117  RH  025%=      5-min Rain = 0
KTAS 042234Z 20002KT 35/12 A2996 RMK A01 T03480117  RH  025%=      5-min Rain = 0
KTAS 042235Z 25002KT 35/12 A2996 RMK A01 T03490118  RH  025%=      5-min Rain = 0
KTAS 042236Z 25002KT 35/12 A2996 RMK A01 T03500118  RH  025%=      5-min Rain = 0
KTAS 042237Z 25002KT 35/12 A2996 RMK A01 T03500116  RH  024%=      5-min Rain = 0
KTAS 042238Z 25003KT 35/12 A2996 RMK A01 T03500119  RH  025%=      5-min Rain = 0
KTAS 042239Z 25002KT 35/12 A2996 RMK A01 T03490124  RH  026%=      5-min Rain = 0
KTAS 042240Z 24002KT 35/12 A2996 RMK A01 T03500118  RH  025%=      5-min Rain = 0
KTAS 042241Z 23004KT 35/12 A2996 RMK A01 T03510124  RH  025%=      5-min Rain = 0
KTAS 042242Z 23004KT 35/12 A2996 RMK A01 T03530122  RH  025%=      5-min Rain = 0
KTAS 042243Z 22003KT 35/12 A2996 RMK A01 T03540121  RH  025%=      5-min Rain = 0
KTAS 042244Z 21005KT 36/12 A2996 RMK A01 T03560121  RH  024%=      5-min Rain = 0
KTAS 042245Z 17006KT 36/12 A2996 RMK A01 T03570122  RH  024%=      5-min Rain = 0
KTAS 042246Z 18007KT 36/12 A2996 RMK A01 T03570119  RH  024%=      5-min Rain = 0
KTAS 042247Z 17008KT 36/12 A2996 RMK A01 T03570119  RH  024%=      5-min Rain = 0
KTAS 042248Z 14005KT 36/12 A2996 RMK A01 T03580119  RH  024%=      5-min Rain = 0
KTAS 042249Z 16006KT 36/12 A2995 RMK A01 T03600123  RH  024%=      5-min Rain = 0
KTAS 042250Z 17008KT 36/12 A2995 RMK A01 T03620122  RH  024%=      5-min Rain = 0
KTAS 042251Z 16005KT 36/12 A2995 RMK A01 T03620118  RH  023%=      5-min Rain = 0
KTAS 042252Z 18005KT 36/12 A2995 RMK A01 T03620118  RH  023%=      5-min Rain = 0
KTAS 042253Z 15007KT 36/12 A2995 RMK A01 T03620118  RH  023%=      5-min Rain = 0
KTAS 042254Z 14005KT 36/12 A2995 RMK A01 T03610117  RH  023%=      5-min Rain = 0
KTAS 042255Z 16002KT 36/12 A2995 RMK A01 T03610115  RH  023%=      5-min Rain = 0
KTAS 042256Z 18000KT 36/12 A2995 RMK A01 T03630117  RH  023%=      5-min Rain = 0
KTAS 042257Z 18004KT 36/12 A2995 RMK A01 T03640117  RH  023%=      5-min Rain = 0
KTAS 042258Z 19002KT 36/12 A2995 RMK A01 T03610117  RH  023%=      5-min Rain = 0
KTAS 042259Z 20006KT 36/12 A2995 RMK A01 T03620120  RH  023%=      5-min Rain = 0
KTAS 042300Z 21006KT 36/12 A2995 RMK A01 T03620120  RH  023%=      5-min Rain = 0
KTAS 042301Z 21007KT 36/12 A2995 RMK A01 T03610119  RH  023%=      5-min Rain = 0
KTAS 042302Z 20004KT 36/12 A2995 RMK A01 T03610120  RH  024%=      5-min Rain = 0
KTAS 042303Z 22006KT 36/12 A2995 RMK A01 T03630121  RH  023%=      5-min Rain = 0
KTAS 042304Z 23006KT 36/12 A2995 RMK A01 T03620121  RH  023%=      5-min Rain = 0
KTAS 042305Z 21004KT 36/12 A2995 RMK A01 T03620120  RH  023%=      5-min Rain = 0
KTAS 042306Z 22004KT 36/12 A2995 RMK A01 T03610120  RH  023%=      5-min Rain = 0
KTAS 042307Z 20005KT 36/12 A2995 RMK A01 T03610120  RH  023%=      5-min Rain = 0
KTAS 042308Z 19006KT 36/12 A2995 RMK A01 T03600120  RH  024%=      5-min Rain = 0
KTAS 042309Z 16004KT 36/12 A2995 RMK A01 T03590119  RH  024%=      5-min Rain = 0
KTAS 042310Z 17004KT 36/12 A2995 RMK A01 T03580119  RH  024%=      5-min Rain = 0
KTAS 042311Z 20003KT 36/12 A2995 RMK A01 T03570120  RH  024%=      5-min Rain = 0
KTAS 042312Z 21004KT 36/12 A2995 RMK A01 T03570122  RH  024%=      5-min Rain = 0
KTAS 042313Z 21005KT 36/12 A2995 RMK A01 T03570120  RH  024%=      5-min Rain = 0
KTAS 042314Z 21004KT 36/12 A2995 RMK A01 T03550120  RH  024%=      5-min Rain = 0
KTAS 042315Z 21004KT 35/12 A2995 RMK A01 T03540120  RH  024%=      5-min Rain = 0
KTAS 042316Z 21003KT 35/12 A2995 RMK A01 T03540120  RH  024%=      5-min Rain = 0
KTAS 042317Z 24004KT 36/13 A2995 RMK A01 T03550125  RH  025%=      5-min Rain = 0
KTAS 042318Z 25003KT 36/12 A2995 RMK A01 T03550118  RH  024%=      5-min Rain = 0
KTAS 042319Z 25002KT 35/12 A2995 RMK A01 T03530120  RH  024%=      5-min Rain = 0
KTAS 042320Z 25003KT 35/12 A2995 RMK A01 T03520116  RH  024%=      5-min Rain = 0
KTAS 042321Z 23003KT 35/12 A2995 RMK A01 T03510118  RH  024%=      5-min Rain = 0
KTAS 042322Z 20002KT 35/12 A2995 RMK A01 T03490115  RH  024%=      5-min Rain = 0
KTAS 042323Z 20000KT 35/12 A2995 RMK A01 T03490116  RH  024%=      5-min Rain = 0
KTAS 042324Z 00000KT 35/12 A2995 RMK A01 T03490115  RH  024%=      5-min Rain = 0
KTAS 042325Z 26000KT 35/12 A2994 RMK A01 T03510117  RH  024%=      5-min Rain = 0
KTAS 042326Z 00000KT 35/12 A2994 RMK A01 T03530117  RH  024%=      5-min Rain = 0
KTAS 042327Z 25000KT 35/12 A2994 RMK A01 T03540117  RH  024%=      5-min Rain = 0
KTAS 042328Z 23002KT 36/12 A2994 RMK A01 T03550119  RH  024%=      5-min Rain = 0
KTAS 042329Z 22002KT 35/12 A2994 RMK A01 T03540117  RH  024%=      5-min Rain = 0
KTAS 042330Z 22001KT 35/12 A2994 RMK A01 T03530117  RH  024%=      5-min Rain = 0
KTAS 042331Z 00000KT 35/12 A2994 RMK A01 T03520118  RH  024%=      5-min Rain = 0
KTAS 042332Z 00000KT 35/12 A2994 RMK A01 T03530118  RH  024%=      5-min Rain = 0
KTAS 042333Z 29001KT 35/12 A2994 RMK A01 T03540119  RH  024%=      5-min Rain = 0
KTAS 042334Z 31002KT 35/12 A2994 RMK A01 T03540121  RH  024%=      5-min Rain = 0
KTAS 042335Z 31002KT 35/12 A2994 RMK A01 T03540120  RH  024%=      5-min Rain = 0
KTAS 042336Z 32002KT 35/12 A2994 RMK A01 T03520118  RH  024%=      5-min Rain = 0
KTAS 042337Z 32001KT 35/12 A2994 RMK A01 T03520116  RH  024%=      5-min Rain = 0
KTAS 042338Z 29001KT 35/12 A2994 RMK A01 T03530124  RH  025%=      5-min Rain = 0
KTAS 042339Z 24001KT 35/12 A2994 RMK A01 T03540123  RH  025%=      5-min Rain = 0
KTAS 042340Z 25001KT 35/12 A2994 RMK A01 T03530124  RH  025%=      5-min Rain = 0
KTAS 042341Z 23001KT 35/12 A2994 RMK A01 T03530121  RH  025%=      5-min Rain = 0
KTAS 042342Z 22001KT 35/13 A2994 RMK A01 T03520125  RH  025%=      5-min Rain = 0
KTAS 042343Z 23002KT 35/12 A2994 RMK A01 T03520120  RH  025%=      5-min Rain = 0
KTAS 042344Z 23001KT 35/12 A2994 RMK A01 T03520118  RH  024%=      5-min Rain = 0
KTAS 042345Z 21001KT 35/12 A2994 RMK A01 T03540117  RH  024%=      5-min Rain = 0
KTAS 042346Z 19001KT 36/12 A2994 RMK A01 T03550118  RH  024%=      5-min Rain = 0
KTAS 042347Z 00000KT 36/12 A2994 RMK A01 T03550117  RH  024%=      5-min Rain = 0
KTAS 042348Z 00000KT 35/12 A2994 RMK A01 T03540115  RH  023%=      5-min Rain = 0
KTAS 042349Z 18001KT 35/12 A2994 RMK A01 T03530115  RH  024%=      5-min Rain = 0
KTAS 042350Z 08002KT 35/12 A2994 RMK A01 T03520117  RH  024%=      5-min Rain = 0
KTAS 042351Z 06003KT 35/13 A2994 RMK A01 T03510125  RH  026%=      5-min Rain = 0
KTAS 042352Z 06002KT 35/12 A2994 RMK A01 T03490120  RH  025%=      5-min Rain = 0
KTAS 042353Z 05003KT 35/12 A2994 RMK A01 T03490123  RH  026%=      5-min Rain = 0
KTAS 042354Z 05003KT 35/12 A2994 RMK A01 T03490123  RH  026%=      5-min Rain = 0
KTAS 042355Z 04003KT 35/13 A2994 RMK A01 T03510128  RH  026%=      5-min Rain = 0
KTAS 042356Z 07003KT 35/12 A2994 RMK A01 T03520123  RH  025%=      5-min Rain = 0
KTAS 042357Z 08003KT 35/12 A2994 RMK A01 T03500121  RH  025%=      5-min Rain = 0
KTAS 042358Z 09002KT 35/12 A2994 RMK A01 T03500123  RH  025%=      5-min Rain = 0
KTAS 042359Z 09001KT 35/12 A2994 RMK A01 T03490123  RH  025%=      5-min Rain = 0
KTAS 050000Z 10002KT 35/12 A2994 RMK A01 T03490121  RH  025%=      5-min Rain = 0
KTAS 050001Z 09001KT 35/12 A2994 RMK A01 T03510123  RH  025%=      5-min Rain = 0
KTAS 050002Z 07004KT 35/13 A2994 RMK A01 T03510126  RH  026%=      5-min Rain = 0
KTAS 050003Z 09006KT 35/13 A2994 RMK A01 T03490126  RH  026%=      5-min Rain = 0
KTAS 050004Z 10006KT 35/12 A2994 RMK A01 T03470119  RH  025%=      5-min Rain = 0
KTAS 050005Z 12005KT 35/12 A2994 RMK A01 T03490119  RH  025%=      5-min Rain = 0
KTAS 050006Z 10005KT 35/12 A2994 RMK A01 T03500123  RH  025%=      5-min Rain = 0
KTAS 050007Z 07007KT 35/12 A2994 RMK A01 T03500124  RH  026%=      5-min Rain = 0
KTAS 050008Z 08007KT 35/12 A2994 RMK A01 T03490124  RH  026%=      5-min Rain = 0
KTAS 050009Z 09007KT 35/13 A2994 RMK A01 T03500125  RH  026%=      5-min Rain = 0
KTAS 050010Z 08005KT 35/12 A2994 RMK A01 T03490120  RH  025%=      5-min Rain = 0
KTAS 050011Z 08004KT 35/12 A2994 RMK A01 T03480122  RH  025%=      5-min Rain = 0
KTAS 050012Z 08004KT 35/12 A2994 RMK A01 T03470122  RH  026%=      5-min Rain = 0
KTAS 050013Z 07003KT 35/12 A2994 RMK A01 T03460121  RH  026%=      5-min Rain = 0
KTAS 050014Z 06004KT 35/12 A2994 RMK A01 T03450117  RH  025%=      5-min Rain = 0
KTAS 050015Z 05005KT 35/12 A2994 RMK A01 T03450117  RH  025%=      5-min Rain = 0
KTAS 050016Z 05005KT 34/13 A2994 RMK A01 T03440125  RH  027%=      5-min Rain = 0
KTAS 050017Z 05005KT 34/12 A2994 RMK A01 T03430120  RH  026%=      5-min Rain = 0
KTAS 050018Z 06004KT 34/12 A2994 RMK A01 T03420119  RH  026%=      5-min Rain = 0
KTAS 050019Z 05004KT 34/12 A2994 RMK A01 T03420120  RH  026%=      5-min Rain = 0
KTAS 050020Z 06003KT 34/12 A2994 RMK A01 T03410123  RH  027%=      5-min Rain = 0
KTAS 050021Z 05003KT 34/13 A2994 RMK A01 T03410127  RH  027%=      5-min Rain = 0
KTAS 050022Z 06004KT 34/13 A2994 RMK A01 T03410126  RH  027%=      5-min Rain = 0
KTAS 050023Z 06004KT 34/12 A2994 RMK A01 T03400124  RH  027%=      5-min Rain = 0
KTAS 050024Z 06005KT 34/13 A2994 RMK A01 T03400127  RH  028%=      5-min Rain = 0
KTAS 050025Z 06005KT 34/13 A2994 RMK A01 T03390127  RH  028%=      5-min Rain = 0
KTAS 050026Z 07004KT 34/13 A2994 RMK A01 T03390125  RH  027%=      5-min Rain = 0
KTAS 050027Z 07004KT 34/13 A2994 RMK A01 T03390127  RH  028%=      5-min Rain = 0
KTAS 050028Z 07004KT 34/13 A2994 RMK A01 T03390129  RH  028%=      5-min Rain = 0
KTAS 050029Z 07004KT 34/13 A2994 RMK A01 T03390131  RH  029%=      5-min Rain = 0
KTAS 050030Z 08004KT 34/13 A2994 RMK A01 T03390131  RH  029%=      5-min Rain = 0
KTAS 050031Z 08004KT 34/13 A2994 RMK A01 T03380131  RH  028%=      5-min Rain = 0
KTAS 050032Z 08004KT 34/13 A2994 RMK A01 T03380129  RH  028%=      5-min Rain = 0
KTAS 050033Z 08004KT 34/13 A2994 RMK A01 T03380128  RH  028%=      5-min Rain = 0
KTAS 050034Z 08003KT 34/13 A2994 RMK A01 T03390125  RH  027%=      5-min Rain = 0
KTAS 050035Z 09003KT 34/13 A2994 RMK A01 T03390128  RH  028%=      5-min Rain = 0
KTAS 050036Z 09003KT 34/13 A2994 RMK A01 T03400130  RH  028%=      5-min Rain = 0
KTAS 050037Z 09003KT 34/13 A2994 RMK A01 T03400130  RH  028%=      5-min Rain = 0
KTAS 050038Z 08003KT 34/13 A2994 RMK A01 T03410129  RH  028%=      5-min Rain = 0
KTAS 050039Z 08004KT 34/13 A2994 RMK A01 T03410131  RH  028%=      5-min Rain = 0
KTAS 050040Z 10004KT 34/13 A2994 RMK A01 T03400128  RH  028%=      5-min Rain = 0
KTAS 050041Z 12002KT 34/13 A2994 RMK A01 T03400127  RH  028%=      5-min Rain = 0
KTAS 050042Z 12002KT 34/13 A2994 RMK A01 T03400129  RH  028%=      5-min Rain = 0
KTAS 050043Z 12002KT 34/13 A2994 RMK A01 T03400134  RH  029%=      5-min Rain = 0
KTAS 050044Z 10003KT 34/13 A2994 RMK A01 T03400128  RH  028%=      5-min Rain = 0
KTAS 050045Z 09003KT 34/13 A2994 RMK A01 T03400132  RH  029%=      5-min Rain = 0
KTAS 050046Z 09003KT 34/13 A2994 RMK A01 T03410134  RH  029%=      5-min Rain = 0
KTAS 050047Z 10004KT 34/13 A2994 RMK A01 T03410133  RH  029%=      5-min Rain = 0
KTAS 050048Z 09003KT 34/13 A2994 RMK A01 T03410133  RH  029%=      5-min Rain = 0
KTAS 050049Z 09004KT 34/13 A2994 RMK A01 T03410134  RH  029%=      5-min Rain = 0
KTAS 050050Z 08003KT 34/14 A2994 RMK A01 T03410135  RH  029%=      5-min Rain = 0
KTAS 050051Z 09004KT 34/14 A2994 RMK A01 T03400135  RH  029%=      5-min Rain = 0
KTAS 050052Z 10005KT 34/13 A2994 RMK A01 T03400129  RH  028%=      5-min Rain = 0
KTAS 050053Z 11003KT 34/13 A2994 RMK A01 T03390127  RH  028%=      5-min Rain = 0
KTAS 050054Z 10003KT 34/13 A2994 RMK A01 T03390127  RH  028%=      5-min Rain = 0
KTAS 050055Z 10004KT 34/13 A2994 RMK A01 T03390129  RH  028%=      5-min Rain = 0
KTAS 050056Z 09004KT 34/13 A2994 RMK A01 T03380129  RH  028%=      5-min Rain = 0
KTAS 050057Z 09006KT 34/13 A2994 RMK A01 T03370126  RH  028%=      5-min Rain = 0
KTAS 050058Z 09005KT 34/12 A2994 RMK A01 T03370120  RH  027%=      5-min Rain = 0
KTAS 050059Z 09005KT 34/12 A2994 RMK A01 T03370120  RH  027%=      5-min Rain = 0
KTAS 050100Z 08005KT 34/12 A2994 RMK A01 T03370123  RH  027%=      5-min Rain = 0
KTAS 050101Z 09005KT 34/12 A2994 RMK A01 T03370123  RH  027%=      5-min Rain = 0
KTAS 050102Z 09004KT 34/12 A2995 RMK A01 T03370120  RH  027%=      5-min Rain = 0
KTAS 050103Z 08003KT 34/12 A2995 RMK A01 T03360123  RH  027%=      5-min Rain = 0
KTAS 050104Z 08005KT 34/13 A2995 RMK A01 T03350127  RH  028%=      5-min Rain = 0
KTAS 050105Z 11005KT 33/13 A2995 RMK A01 T03340129  RH  029%=      5-min Rain = 0
KTAS 050106Z 12004KT 33/13 A2995 RMK A01 T03330129  RH  029%=      5-min Rain = 0
KTAS 050107Z 11004KT 33/13 A2995 RMK A01 T03330129  RH  029%=      5-min Rain = 0
KTAS 050108Z 12004KT 33/13 A2995 RMK A01 T03330131  RH  029%=      5-min Rain = 0
KTAS 050109Z 12004KT 33/13 A2995 RMK A01 T03330131  RH  029%=      5-min Rain = 0
KTAS 050110Z 12004KT 33/13 A2995 RMK A01 T03340130  RH  029%=      5-min Rain = 0
KTAS 050111Z 12004KT 34/13 A2995 RMK A01 T03350129  RH  029%=      5-min Rain = 0
KTAS 050112Z 11005KT 34/13 A2995 RMK A01 T03350131  RH  029%=      5-min Rain = 0
KTAS 050113Z 11004KT 34/13 A2995 RMK A01 T03350131  RH  029%=      5-min Rain = 0
KTAS 050114Z 11004KT 34/14 A2995 RMK A01 T03350136  RH  030%=      5-min Rain = 0
KTAS 050115Z 11004KT 33/14 A2995 RMK A01 T03340135  RH  030%=      5-min Rain = 0
KTAS 050116Z 11004KT 33/13 A2995 RMK A01 T03320133  RH  030%=      5-min Rain = 0
KTAS 050117Z 10003KT 33/13 A2995 RMK A01 T03320134  RH  030%=      5-min Rain = 0
KTAS 050118Z 11004KT 33/14 A2995 RMK A01 T03310135  RH  031%=      5-min Rain = 0
KTAS 050119Z 12005KT 33/13 A2995 RMK A01 T03300133  RH  030%=      5-min Rain = 0
KTAS 050120Z 12004KT 33/13 A2995 RMK A01 T03290130  RH  030%=      5-min Rain = 0
KTAS 050121Z 12004KT 33/13 A2995 RMK A01 T03290131  RH  030%=      5-min Rain = 0
KTAS 050122Z 13004KT 33/13 A2995 RMK A01 T03280133  RH  031%=      5-min Rain = 0
KTAS 050123Z 11004KT 33/13 A2995 RMK A01 T03270134  RH  031%=      5-min Rain = 0
KTAS 050124Z 11004KT 33/14 A2995 RMK A01 T03260135  RH  031%=      5-min Rain = 0
KTAS 050125Z 11004KT 33/13 A2995 RMK A01 T03250133  RH  031%=      5-min Rain = 0
KTAS 050126Z 12005KT 32/13 A2995 RMK A01 T03240132  RH  031%=      5-min Rain = 0
KTAS 050127Z 12004KT 32/13 A2995 RMK A01 T03230131  RH  031%=      5-min Rain = 0
KTAS 050128Z 12004KT 32/13 A2995 RMK A01 T03230128  RH  031%=      5-min Rain = 0
KTAS 050129Z 12004KT 32/13 A2995 RMK A01 T03230129  RH  031%=      5-min Rain = 0
KTAS 050130Z 12005KT 32/13 A2995 RMK A01 T03230129  RH  031%=      5-min Rain = 0
KTAS 050131Z 12005KT 32/13 A2995 RMK A01 T03220129  RH  031%=      5-min Rain = 0
KTAS 050132Z 12005KT 32/13 A2995 RMK A01 T03220129  RH  031%=      5-min Rain = 0
KTAS 050133Z 12005KT 32/13 A2995 RMK A01 T03210129  RH  031%=      5-min Rain = 0
KTAS 050134Z 12006KT 32/13 A2995 RMK A01 T03210128  RH  031%=      5-min Rain = 0
KTAS 050135Z 12006KT 32/13 A2995 RMK A01 T03210128  RH  031%=      5-min Rain = 0
KTAS 050136Z 12006KT 32/13 A2995 RMK A01 T03210128  RH  031%=      5-min Rain = 0
KTAS 050137Z 12006KT 32/13 A2995 RMK A01 T03210128  RH  031%=      5-min Rain = 0
KTAS 050138Z 11005KT 32/13 A2995 RMK A01 T03210127  RH  031%=      5-min Rain = 0
KTAS 050139Z 11005KT 32/13 A2995 RMK A01 T03210129  RH  031%=      5-min Rain = 0
KTAS 050140Z 11006KT 32/13 A2996 RMK A01 T03200128  RH  031%=      5-min Rain = 0
KTAS 050141Z 11006KT 32/13 A2996 RMK A01 T03190129  RH  031%=      5-min Rain = 0
KTAS 050142Z 11006KT 32/13 A2996 RMK A01 T03190129  RH  031%=      5-min Rain = 0
KTAS 050143Z 11006KT 32/13 A2996 RMK A01 T03180128  RH  031%=      5-min Rain = 0
KTAS 050144Z 11006KT 32/13 A2996 RMK A01 T03180127  RH  031%=      5-min Rain = 0
KTAS 050145Z 11006KT 32/13 A2996 RMK A01 T03180127  RH  031%=      5-min Rain = 0
KTAS 050146Z 11005KT 32/13 A2996 RMK A01 T03180127  RH  031%=      5-min Rain = 0
KTAS 050147Z 11006KT 32/13 A2996 RMK A01 T03180127  RH  031%=      5-min Rain = 0
KTAS 050148Z 11006KT 32/13 A2996 RMK A01 T03160128  RH  032%=      5-min Rain = 0
KTAS 050149Z 11005KT 32/13 A2996 RMK A01 T03160128  RH  032%=      5-min Rain = 0
KTAS 050150Z 11005KT 32/13 A2996 RMK A01 T03150128  RH  032%=      5-min Rain = 0
KTAS 050151Z 11005KT 31/13 A2996 RMK A01 T03140129  RH  032%=      5-min Rain = 0
KTAS 050152Z 11005KT 31/13 A2996 RMK A01 T03120129  RH  033%=      5-min Rain = 0
KTAS 050153Z 11005KT 31/13 A2996 RMK A01 T03120129  RH  033%=      5-min Rain = 0
KTAS 050154Z 11005KT 31/13 A2996 RMK A01 T03110130  RH  033%=      5-min Rain = 0
KTAS 050155Z 11005KT 31/13 A2996 RMK A01 T03100130  RH  033%=      5-min Rain = 0
KTAS 050156Z 11005KT 31/13 A2996 RMK A01 T03100130  RH  033%=      5-min Rain = 0
KTAS 050157Z 11005KT 31/13 A2996 RMK A01 T03090130  RH  033%=      5-min Rain = 0
KTAS 050158Z 11005KT 31/13 A2996 RMK A01 T03080130  RH  034%=      5-min Rain = 0
KTAS 050159Z 11005KT 31/13 A2996 RMK A01 T03080130  RH  034%=      5-min Rain = 0
KTAS 050200Z 11005KT 31/13 A2996 RMK A01 T03070130  RH  034%=      5-min Rain = 0
KTAS 050201Z 11005KT 31/13 A2996 RMK A01 T03060129  RH  034%=      5-min Rain = 0
KTAS 050202Z 12005KT 31/13 A2996 RMK A01 T03060129  RH  034%=      5-min Rain = 0
KTAS 050203Z 11005KT 31/13 A2996 RMK A01 T03060129  RH  034%=      5-min Rain = 0
KTAS 050204Z 11005KT 31/13 A2996 RMK A01 T03060129  RH  034%=      5-min Rain = 0
KTAS 050205Z 11005KT 31/13 A2996 RMK A01 T03060129  RH  034%=      5-min Rain = 0
KTAS 050206Z 11005KT 31/13 A2996 RMK A01 T03060129  RH  034%=      5-min Rain = 0
KTAS 050207Z 11006KT 31/13 A2996 RMK A01 T03060130  RH  034%=      5-min Rain = 0
KTAS 050208Z 11005KT 31/13 A2997 RMK A01 T03050129  RH  034%=      5-min Rain = 0
KTAS 050209Z 11005KT 31/13 A2997 RMK A01 T03050129  RH  034%=      5-min Rain = 0
KTAS 050210Z 11004KT 31/13 A2997 RMK A01 T03050129  RH  034%=      5-min Rain = 0
KTAS 050211Z 12005KT 31/13 A2997 RMK A01 T03050129  RH  034%=      5-min Rain = 0
KTAS 050212Z 11005KT 31/13 A2997 RMK A01 T03060129  RH  034%=      5-min Rain = 0
KTAS 050213Z 11005KT 31/13 A2997 RMK A01 T03060129  RH  034%=      5-min Rain = 0
KTAS 050214Z 11005KT 31/13 A2997 RMK A01 T03060129  RH  034%=      5-min Rain = 0
KTAS 050215Z 11005KT 31/13 A2997 RMK A01 T03050130  RH  034%=      5-min Rain = 0
KTAS 050216Z 11005KT 30/13 A2997 RMK A01 T03040129  RH  034%=      5-min Rain = 0
KTAS 050217Z 11004KT 30/13 A2997 RMK A01 T03040131  RH  035%=      5-min Rain = 0
KTAS 050218Z 11005KT 30/13 A2997 RMK A01 T03040131  RH  035%=      5-min Rain = 0
KTAS 050219Z 11004KT 30/13 A2997 RMK A01 T03030132  RH  035%=      5-min Rain = 0
KTAS 050220Z 11005KT 30/13 A2997 RMK A01 T03020132  RH  035%=      5-min Rain = 0
KTAS 050221Z 11005KT 30/13 A2997 RMK A01 T03010132  RH  036%=      5-min Rain = 0
KTAS 050222Z 10005KT 30/13 A2997 RMK A01 T03010132  RH  036%=      5-min Rain = 0
KTAS 050223Z 10005KT 30/13 A2997 RMK A01 T03000133  RH  036%=      5-min Rain = 0
KTAS 050224Z 10005KT 30/13 A2997 RMK A01 T02990133  RH  036%=      5-min Rain = 0
KTAS 050225Z 10006KT 30/13 A2997 RMK A01 T02990132  RH  036%=      5-min Rain = 0
KTAS 050226Z 10006KT 30/13 A2997 RMK A01 T02990132  RH  036%=      5-min Rain = 0
KTAS 050227Z 10006KT 30/13 A2997 RMK A01 T03000132  RH  036%=      5-min Rain = 0
KTAS 050228Z 09005KT 30/13 A2997 RMK A01 T03000132  RH  036%=      5-min Rain = 0
KTAS 050229Z 09006KT 30/13 A2997 RMK A01 T03000132  RH  036%=      5-min Rain = 0
KTAS 050230Z 09005KT 30/13 A2997 RMK A01 T03000132  RH  036%=      5-min Rain = 0
KTAS 050231Z 09005KT 30/13 A2997 RMK A01 T03000133  RH  036%=      5-min Rain = 0
KTAS 050232Z 09006KT 30/13 A2997 RMK A01 T02990133  RH  036%=      5-min Rain = 0
KTAS 050233Z 09006KT 30/13 A2997 RMK A01 T03000131  RH  036%=      5-min Rain = 0
KTAS 050234Z 09006KT 30/13 A2997 RMK A01 T03010131  RH  035%=      5-min Rain = 0
KTAS 050235Z 09006KT 30/13 A2997 RMK A01 T03010131  RH  035%=      5-min Rain = 0
KTAS 050236Z 09006KT 30/13 A2997 RMK A01 T03020131  RH  035%=      5-min Rain = 0
KTAS 050237Z 10006KT 30/13 A2997 RMK A01 T03020131  RH  035%=      5-min Rain = 0
KTAS 050238Z 09006KT 30/13 A2997 RMK A01 T03020131  RH  035%=      5-min Rain = 0
KTAS 050239Z 09006KT 30/13 A2997 RMK A01 T03030131  RH  035%=      5-min Rain = 0
KTAS 050240Z 08007KT 30/13 A2997 RMK A01 T03030132  RH  035%=      5-min Rain = 0
KTAS 050241Z 06008KT 30/13 A2998 RMK A01 T03030133  RH  035%=      5-min Rain = 0
KTAS 050242Z 06010KT 30/13 A2998 RMK A01 T03030134  RH  036%=      5-min Rain = 0
KTAS 050243Z 07012KT 30/14 A2998 RMK A01 T03020138  RH  037%=      5-min Rain = 0
KTAS 050244Z 07013KT 30/14 A2998 RMK A01 T03020141  RH  037%=      5-min Rain = 0
KTAS 050245Z 07013KT 30/14 A2998 RMK A01 T03020141  RH  037%=      5-min Rain = 0
KTAS 050246Z 07016G21KT 30/14 A2998 RMK A01 T03020142  RH  038%=      5-min Rain = 0
KTAS 050247Z 08016KT 30/14 A2998 RMK A01 T03020141  RH  037%=      5-min Rain = 0
KTAS 050248Z 09012KT 30/14 A2998 RMK A01 T03020142  RH  038%=      5-min Rain = 0
KTAS 050249Z 09014KT 30/14 A2998 RMK A01 T03020142  RH  038%=      5-min Rain = 0
KTAS 050250Z 08012KT 30/14 A2998 RMK A01 T03020143  RH  038%=      5-min Rain = 0
KTAS 050251Z 08015G21KT 30/14 A2998 RMK A01 T03000144  RH  039%=      5-min Rain = 0
KTAS 050252Z 08017KT 30/15 A2998 RMK A01 T03000145  RH  039%=      5-min Rain = 0
KTAS 050253Z 08014G19KT 30/15 A2998 RMK A01 T03000146  RH  039%=      5-min Rain = 0
KTAS 050254Z 08016KT 30/15 A2998 RMK A01 T02990146  RH  039%=      5-min Rain = 0
KTAS 050255Z 08014KT 30/15 A2998 RMK A01 T02980146  RH  040%=      5-min Rain = 0
KTAS 050256Z 08012KT 30/15 A2998 RMK A01 T02970147  RH  040%=      5-min Rain = 0
KTAS 050257Z 08014G19KT 30/15 A2998 RMK A01 T02970147  RH  040%=      5-min Rain = 0
KTAS 050258Z 08015KT 30/15 A2998 RMK A01 T02960147  RH  040%=      5-min Rain = 0
KTAS 050259Z 08012KT 30/15 A2998 RMK A01 T02950147  RH  041%=      5-min Rain = 0
KTAS 050300Z 08013G18KT 29/15 A2998 RMK A01 T02940147  RH  041%=      5-min Rain = 0
KTAS 050301Z 08013KT 29/15 A2998 RMK A01 T02930147  RH  041%=      5-min Rain = 0
KTAS 050302Z 08012KT 29/15 A2998 RMK A01 T02930147  RH  041%=      5-min Rain = 0
KTAS 050303Z 08011KT 29/15 A2998 RMK A01 T02920147  RH  041%=      5-min Rain = 0
KTAS 050304Z 08012KT 29/15 A2998 RMK A01 T02910148  RH  042%=      5-min Rain = 0
KTAS 050305Z 08013KT 29/15 A2998 RMK A01 T02900148  RH  042%=      5-min Rain = 0
KTAS 050306Z 08011KT 29/15 A2998 RMK A01 T02900148  RH  042%=      5-min Rain = 0
KTAS 050307Z 08010KT 29/15 A2998 RMK A01 T02890149  RH  042%=      5-min Rain = 0
KTAS 050308Z 08009KT 29/15 A2998 RMK A01 T02870149  RH  043%=      5-min Rain = 0
KTAS 050309Z 08009KT 29/15 A2998 RMK A01 T02860150  RH  043%=      5-min Rain = 0
KTAS 050310Z 08011KT 29/15 A2998 RMK A01 T02850151  RH  044%=      5-min Rain = 0
KTAS 050311Z 08009KT 28/15 A2998 RMK A01 T02840152  RH  044%=      5-min Rain = 0
KTAS 050312Z 08013KT 28/15 A2998 RMK A01 T02830153  RH  045%=      5-min Rain = 0
KTAS 050313Z 08013KT 28/15 A2998 RMK A01 T02820154  RH  046%=      5-min Rain = 0
KTAS 050314Z 08012KT 28/16 A2998 RMK A01 T02820155  RH  046%=      5-min Rain = 0
KTAS 050315Z 07011KT 28/16 A2999 RMK A01 T02810155  RH  046%=      5-min Rain = 0
KTAS 050316Z 07015KT 28/16 A2999 RMK A01 T02790158  RH  048%=      5-min Rain = 0
KTAS 050317Z 07013KT 28/16 A2999 RMK A01 T02780160  RH  049%=      5-min Rain = 0
KTAS 050318Z 07012KT 28/16 A2999 RMK A01 T02770161  RH  049%=      5-min Rain = 0
KTAS 050319Z 07014KT 28/16 A2999 RMK A01 T02750162  RH  050%=      5-min Rain = 0
KTAS 050320Z 08015KT 27/16 A2999 RMK A01 T02740163  RH  051%=      5-min Rain = 0
KTAS 050321Z 08013KT 27/16 A2999 RMK A01 T02730164  RH  051%=      5-min Rain = 0
KTAS 050322Z 08013G18KT 27/16 A2999 RMK A01 T02730164  RH  052%=      5-min Rain = 0
KTAS 050323Z 08014KT 27/17 A2999 RMK A01 T02720165  RH  052%=      5-min Rain = 0
KTAS 050324Z 07015KT 27/17 A2999 RMK A01 T02710165  RH  052%=      5-min Rain = 0
KTAS 050325Z 08014G19KT 27/17 A2999 RMK A01 T02700166  RH  053%=      5-min Rain = 0
KTAS 050326Z 08016KT 27/17 A2999 RMK A01 T02690167  RH  053%=      5-min Rain = 0
KTAS 050327Z 08014KT 27/17 A2999 RMK A01 T02680167  RH  054%=      5-min Rain = 0
KTAS 050328Z 08014G20KT 27/17 A2999 RMK A01 T02670167  RH  054%=      5-min Rain = 0
KTAS 050329Z 08016KT 27/17 A2999 RMK A01 T02660168  RH  055%=      5-min Rain = 0
KTAS 050330Z 08015KT 27/17 A2999 RMK A01 T02650168  RH  055%=      5-min Rain = 0
KTAS 050331Z 08014KT 26/17 A2999 RMK A01 T02640168  RH  055%=      5-min Rain = 0
KTAS 050332Z 08013KT 26/17 A2999 RMK A01 T02640168  RH  056%=      5-min Rain = 0
KTAS 050333Z 09012G18KT 26/17 A2999 RMK A01 T02630168  RH  056%=      5-min Rain = 0
KTAS 050334Z 09015KT 26/17 A2999 RMK A01 T02630169  RH  056%=      5-min Rain = 0
KTAS 050335Z 09016KT 26/17 A2999 RMK A01 T02620169  RH  057%=      5-min Rain = 0
KTAS 050336Z 08013KT 26/17 A2999 RMK A01 T02620169  RH  057%=      5-min Rain = 0
KTAS 050337Z 08013KT 26/17 A2999 RMK A01 T02600169  RH  057%=      5-min Rain = 0
KTAS 050338Z 08013KT 26/17 A2999 RMK A01 T02600170  RH  058%=      5-min Rain = 0
KTAS 050339Z 08014G19KT 26/17 A2999 RMK A01 T02590170  RH  058%=      5-min Rain = 0
KTAS 050340Z 09016KT 26/17 A2999 RMK A01 T02590170  RH  058%=      5-min Rain = 0
KTAS 050341Z 09013KT 26/17 A2999 RMK A01 T02580170  RH  058%=      5-min Rain = 0
KTAS 050342Z 09014KT 26/17 A2999 RMK A01 T02580170  RH  058%=      5-min Rain = 0
KTAS 050343Z 09011KT 26/17 A2999 RMK A01 T02580170  RH  058%=      5-min Rain = 0
KTAS 050344Z 09010KT 26/17 A2999 RMK A01 T02570170  RH  059%=      5-min Rain = 0
KTAS 050345Z 09011KT 26/17 A2999 RMK A01 T02560170  RH  059%=      5-min Rain = 0
KTAS 050346Z 08011KT 26/17 A2999 RMK A01 T02560170  RH  059%=      5-min Rain = 0
KTAS 050347Z 08011KT 26/17 A2999 RMK A01 T02550170  RH  059%=      5-min Rain = 0
KTAS 050348Z 08012KT 26/17 A2999 RMK A01 T02550170  RH  060%=      5-min Rain = 0
KTAS 050349Z 08012KT 26/17 A2999 RMK A01 T02550171  RH  060%=      5-min Rain = 0
KTAS 050350Z 09013KT 25/17 A2999 RMK A01 T02540171  RH  060%=      5-min Rain = 0
KTAS 050351Z 09010KT 25/17 A30 RMK A01 T02540171  RH  060%=      5-min Rain = 0
KTAS 050352Z 08010KT 25/17 A30 RMK A01 T02540171  RH  060%=      5-min Rain = 0
KTAS 050353Z 09009KT 25/17 A30 RMK A01 T02530171  RH  060%=      5-min Rain = 0
KTAS 050354Z 08010KT 25/17 A30 RMK A01 T02520171  RH  061%=      5-min Rain = 0
KTAS 050355Z 08010KT 25/17 A2999 RMK A01 T02520171  RH  061%=      5-min Rain = 0
KTAS 050356Z 08010KT 25/17 A2999 RMK A01 T02520171  RH  061%=      5-min Rain = 0
KTAS 050357Z 08010KT 25/17 A2999 RMK A01 T02510171  RH  061%=      5-min Rain = 0
KTAS 050358Z 08009KT 25/17 A2999 RMK A01 T02510172  RH  061%=      5-min Rain = 0
KTAS 050359Z 08011KT 25/17 A2999 RMK A01 T02510172  RH  062%=      5-min Rain = 0
KTAS 050400Z 08010KT 25/17 A2999 RMK A01 T02510172  RH  062%=      5-min Rain = 0
KTAS 050401Z 08010KT 25/17 A2999 RMK A01 T02500171  RH  062%=      5-min Rain = 0
KTAS 050402Z 08009KT 25/17 A2999 RMK A01 T02500171  RH  062%=      5-min Rain = 0
KTAS 050403Z 08010KT 25/17 A2999 RMK A01 T02490171  RH  062%=      5-min Rain = 0
KTAS 050404Z 09009KT 25/17 A2999 RMK A01 T02490171  RH  062%=      5-min Rain = 0
KTAS 050405Z 09008KT 25/17 A2999 RMK A01 T02490171  RH  062%=      5-min Rain = 0
KTAS 050406Z 08008KT 25/17 A2999 RMK A01 T02490170  RH  062%=      5-min Rain = 0
KTAS 050407Z 08010KT 25/17 A2999 RMK A01 T02490170  RH  062%=      5-min Rain = 0
KTAS 050408Z 09008KT 25/17 A2999 RMK A01 T02490170  RH  062%=      5-min Rain = 0
KTAS 050409Z 09008KT 25/17 A2999 RMK A01 T02490170  RH  062%=      5-min Rain = 0
KTAS 050410Z 09007KT 25/17 A2998 RMK A01 T02480170  RH  062%=      5-min Rain = 0
KTAS 050411Z 09007KT 25/17 A2998 RMK A01 T02480170  RH  062%=      5-min Rain = 0
KTAS 050412Z 09006KT 25/17 A2998 RMK A01 T02470170  RH  062%=      5-min Rain = 0
KTAS 050413Z 09007KT 25/17 A2998 RMK A01 T02460170  RH  063%=      5-min Rain = 0
KTAS 050414Z 09007KT 25/17 A2998 RMK A01 T02450171  RH  063%=      5-min Rain = 0
KTAS 050415Z 09007KT 25/17 A2998 RMK A01 T02450170  RH  063%=      5-min Rain = 0
KTAS 050416Z 09007KT 25/17 A2998 RMK A01 T02450171  RH  063%=      5-min Rain = 0
KTAS 050417Z 09007KT 24/17 A2998 RMK A01 T02440171  RH  064%=      5-min Rain = 0
KTAS 050418Z 09007KT 24/17 A2998 RMK A01 T02430170  RH  064%=      5-min Rain = 0
KTAS 050419Z 09008KT 24/17 A2998 RMK A01 T02430171  RH  064%=      5-min Rain = 0
KTAS 050420Z 09007KT 24/17 A2998 RMK A01 T02420171  RH  064%=      5-min Rain = 0
KTAS 050421Z 09007KT 24/17 A2998 RMK A01 T02420171  RH  064%=      5-min Rain = 0
KTAS 050422Z 08008KT 24/17 A2998 RMK A01 T02420171  RH  065%=      5-min Rain = 0
KTAS 050423Z 08007KT 24/17 A2998 RMK A01 T02410170  RH  064%=      5-min Rain = 0
KTAS 050424Z 08007KT 24/17 A2998 RMK A01 T02410170  RH  064%=      5-min Rain = 0
KTAS 050425Z 08006KT 24/17 A2998 RMK A01 T02410171  RH  065%=      5-min Rain = 0
KTAS 050426Z 08007KT 24/17 A2998 RMK A01 T02410170  RH  065%=      5-min Rain = 0
KTAS 050427Z 08007KT 24/17 A2998 RMK A01 T02400171  RH  065%=      5-min Rain = 0
KTAS 050428Z 08007KT 24/17 A2998 RMK A01 T02400170  RH  065%=      5-min Rain = 0
KTAS 050429Z 08008KT 24/17 A2998 RMK A01 T02400170  RH  065%=      5-min Rain = 0
KTAS 050430Z 08008KT 24/17 A2998 RMK A01 T02410170  RH  065%=      5-min Rain = 0
KTAS 050431Z 08011KT 24/17 A2998 RMK A01 T02420170  RH  064%=      5-min Rain = 0
KTAS 050432Z 08007KT 24/17 A2998 RMK A01 T02430170  RH  064%=      5-min Rain = 0
KTAS 050433Z 08008KT 24/17 A2998 RMK A01 T02420170  RH  064%=      5-min Rain = 0
KTAS 050434Z 09008KT 24/17 A2998 RMK A01 T02410170  RH  064%=      5-min Rain = 0
KTAS 050435Z 08008KT 24/17 A2998 RMK A01 T02400170  RH  065%=      5-min Rain = 0
KTAS 050436Z 09008KT 24/17 A2998 RMK A01 T02400170  RH  065%=      5-min Rain = 0
KTAS 050437Z 08009KT 24/17 A2998 RMK A01 T02400170  RH  065%=      5-min Rain = 0
KTAS 050438Z 09008KT 24/17 A2998 RMK A01 T02420170  RH  064%=      5-min Rain = 0
KTAS 050439Z 09008KT 24/17 A2998 RMK A01 T02420170  RH  064%=      5-min Rain = 0
KTAS 050440Z 09007KT 24/17 A2998 RMK A01 T02420170  RH  064%=      5-min Rain = 0
KTAS 050441Z 09007KT 24/17 A2997 RMK A01 T02410170  RH  064%=      5-min Rain = 0
KTAS 050442Z 09008KT 24/17 A2998 RMK A01 T02410170  RH  064%=      5-min Rain = 0
KTAS 050443Z 09008KT 24/17 A2998 RMK A01 T02400170  RH  065%=      5-min Rain = 0
KTAS 050444Z 09008KT 24/17 A2998 RMK A01 T02400170  RH  065%=      5-min Rain = 0
KTAS 050445Z 08008KT 24/17 A2997 RMK A01 T02390170  RH  065%=      5-min Rain = 0
KTAS 050446Z 08007KT 24/17 A2997 RMK A01 T02380170  RH  066%=      5-min Rain = 0
KTAS 050447Z 08008KT 24/17 A2997 RMK A01 T02370170  RH  066%=      5-min Rain = 0
KTAS 050448Z 08008KT 24/17 A2997 RMK A01 T02370170  RH  066%=      5-min Rain = 0
KTAS 050449Z 08008KT 24/17 A2997 RMK A01 T02370171  RH  066%=      5-min Rain = 0
KTAS 050450Z 08009KT 24/17 A2997 RMK A01 T02360171  RH  067%=      5-min Rain = 0
KTAS 050451Z 08009KT 24/17 A2997 RMK A01 T02360171  RH  067%=      5-min Rain = 0
KTAS 050452Z 08008KT 24/17 A2997 RMK A01 T02360170  RH  067%=      5-min Rain = 0
KTAS 050453Z 08008KT 24/17 A2997 RMK A01 T02360170  RH  066%=      5-min Rain = 0
KTAS 050454Z 08008KT 24/17 A2997 RMK A01 T02360171  RH  067%=      5-min Rain = 0
KTAS 050455Z 08006KT 24/17 A2997 RMK A01 T02370170  RH  066%=      5-min Rain = 0
KTAS 050456Z 09007KT 24/17 A2997 RMK A01 T02360170  RH  066%=      5-min Rain = 0
KTAS 050457Z 09007KT 24/17 A2997 RMK A01 T02370170  RH  066%=      5-min Rain = 0
KTAS 050458Z 08007KT 24/17 A2997 RMK A01 T02370170  RH  066%=      5-min Rain = 0
KTAS 050459Z 09008KT 24/17 A2997 RMK A01 T02360170  RH  067%=      5-min Rain = 0

Page generated in 0.0696 seconds.